<?xml version="1.0" encoding="UTF-8" standalone="no" ?>
<gpx xmlns="http://www.topografix.com/GPX/1/1" xmlns:xsi="http://www.w3.org/2001/XMLSchema-instance" xsi:schemaLocation="http://www.topografix.com/GPX/1/1 http://www.topografix.com/GPX/1/1/gpx.xsd" version="1.1" creator="VisuGPX - https://www.visugpx.com">
  <metadata>
    <name>Mam 2 Liz</name>
    <desc><![CDATA[
essai]]></desc>
  </metadata>
  <trk>
    <name><![CDATA[770105-Mam liz durn]]></name>
    <trkseg>
      <trkpt lat="47.19962" lon="6.16222">
        <ele>469</ele>
        <time>2020-02-10T10:35:28Z</time>
      </trkpt>
      <trkpt lat="47.19941" lon="6.16155">
        <ele>468</ele>
        <time>2020-02-10T10:35:37Z</time>
      </trkpt>
      <trkpt lat="47.19926" lon="6.16136">
        <ele>469</ele>
        <time>2020-02-10T10:35:40Z</time>
      </trkpt>
      <trkpt lat="47.19926" lon="6.16136">
        <ele>469</ele>
        <time>2020-02-10T10:35:40Z</time>
      </trkpt>
      <trkpt lat="47.19925" lon="6.16128">
        <ele>469</ele>
        <time>2020-02-10T10:35:41Z</time>
      </trkpt>
      <trkpt lat="47.19889" lon="6.16056">
        <ele>469</ele>
        <time>2020-02-10T10:35:52Z</time>
      </trkpt>
      <trkpt lat="47.19889" lon="6.16056">
        <ele>469</ele>
        <time>2020-02-10T10:35:52Z</time>
      </trkpt>
      <trkpt lat="47.19893" lon="6.16043">
        <ele>468</ele>
        <time>2020-02-10T10:35:54Z</time>
      </trkpt>
      <trkpt lat="47.19893" lon="6.16043">
        <ele>468</ele>
        <time>2020-02-10T10:35:54Z</time>
      </trkpt>
      <trkpt lat="47.19851" lon="6.15944">
        <ele>469</ele>
        <time>2020-02-10T10:36:08Z</time>
      </trkpt>
      <trkpt lat="47.19834" lon="6.15884">
        <ele>468</ele>
        <time>2020-02-10T10:36:16Z</time>
      </trkpt>
      <trkpt lat="47.19824" lon="6.15834">
        <ele>467</ele>
        <time>2020-02-10T10:36:22Z</time>
      </trkpt>
      <trkpt lat="47.19819" lon="6.15746">
        <ele>463</ele>
        <time>2020-02-10T10:36:33Z</time>
      </trkpt>
      <trkpt lat="47.19805" lon="6.15703">
        <ele>462</ele>
        <time>2020-02-10T10:36:39Z</time>
      </trkpt>
      <trkpt lat="47.19805" lon="6.15703">
        <ele>462</ele>
        <time>2020-02-10T10:36:39Z</time>
      </trkpt>
      <trkpt lat="47.19802" lon="6.15706">
        <ele>463</ele>
        <time>2020-02-10T10:36:39Z</time>
      </trkpt>
      <trkpt lat="47.19802" lon="6.15706">
        <ele>463</ele>
        <time>2020-02-10T10:36:39Z</time>
      </trkpt>
      <trkpt lat="47.19653" lon="6.15828">
        <ele>480</ele>
        <time>2020-02-10T10:37:10Z</time>
      </trkpt>
      <trkpt lat="47.19653" lon="6.15828">
        <ele>480</ele>
        <time>2020-02-10T10:37:10Z</time>
      </trkpt>
      <trkpt lat="47.19651" lon="6.15831">
        <ele>481</ele>
        <time>2020-02-10T10:37:10Z</time>
      </trkpt>
      <trkpt lat="47.19651" lon="6.15831">
        <ele>481</ele>
        <time>2020-02-10T10:37:10Z</time>
      </trkpt>
      <trkpt lat="47.19653" lon="6.15828">
        <ele>480</ele>
        <time>2020-02-10T10:37:11Z</time>
      </trkpt>
      <trkpt lat="47.19653" lon="6.15828">
        <ele>480</ele>
        <time>2020-02-10T10:37:11Z</time>
      </trkpt>
      <trkpt lat="47.19591" lon="6.15684">
        <ele>473</ele>
        <time>2020-02-10T10:37:31Z</time>
      </trkpt>
      <trkpt lat="47.19568" lon="6.15599">
        <ele>471</ele>
        <time>2020-02-10T10:37:42Z</time>
      </trkpt>
      <trkpt lat="47.19563" lon="6.15576">
        <ele>471</ele>
        <time>2020-02-10T10:37:45Z</time>
      </trkpt>
      <trkpt lat="47.1956" lon="6.15516">
        <ele>469</ele>
        <time>2020-02-10T10:37:53Z</time>
      </trkpt>
      <trkpt lat="47.19565" lon="6.15446">
        <ele>466</ele>
        <time>2020-02-10T10:38:01Z</time>
      </trkpt>
      <trkpt lat="47.19565" lon="6.15446">
        <ele>466</ele>
        <time>2020-02-10T10:38:01Z</time>
      </trkpt>
      <trkpt lat="47.19544" lon="6.15439">
        <ele>468</ele>
        <time>2020-02-10T10:38:05Z</time>
      </trkpt>
      <trkpt lat="47.19521" lon="6.15385">
        <ele>469</ele>
        <time>2020-02-10T10:38:13Z</time>
      </trkpt>
      <trkpt lat="47.19507" lon="6.15339">
        <ele>469</ele>
        <time>2020-02-10T10:38:19Z</time>
      </trkpt>
      <trkpt lat="47.19508" lon="6.15272">
        <ele>465</ele>
        <time>2020-02-10T10:38:27Z</time>
      </trkpt>
      <trkpt lat="47.19514" lon="6.15239">
        <ele>463</ele>
        <time>2020-02-10T10:38:31Z</time>
      </trkpt>
      <trkpt lat="47.1953" lon="6.152">
        <ele>461</ele>
        <time>2020-02-10T10:38:36Z</time>
      </trkpt>
      <trkpt lat="47.19521" lon="6.15164">
        <ele>460</ele>
        <time>2020-02-10T10:38:41Z</time>
      </trkpt>
      <trkpt lat="47.19514" lon="6.1511">
        <ele>459</ele>
        <time>2020-02-10T10:38:48Z</time>
      </trkpt>
      <trkpt lat="47.19514" lon="6.1511">
        <ele>459</ele>
        <time>2020-02-10T10:38:48Z</time>
      </trkpt>
      <trkpt lat="47.19503" lon="6.15053">
        <ele>458</ele>
        <time>2020-02-10T10:38:55Z</time>
      </trkpt>
      <trkpt lat="47.19479" lon="6.15001">
        <ele>458</ele>
        <time>2020-02-10T10:39:03Z</time>
      </trkpt>
      <trkpt lat="47.19375" lon="6.14876">
        <ele>459</ele>
        <time>2020-02-10T10:39:26Z</time>
      </trkpt>
      <trkpt lat="47.1932" lon="6.14773">
        <ele>457</ele>
        <time>2020-02-10T10:39:42Z</time>
      </trkpt>
      <trkpt lat="47.19147" lon="6.14512">
        <ele>454</ele>
        <time>2020-02-10T10:40:26Z</time>
      </trkpt>
      <trkpt lat="47.19076" lon="6.14429">
        <ele>454</ele>
        <time>2020-02-10T10:40:42Z</time>
      </trkpt>
      <trkpt lat="47.18994" lon="6.14324">
        <ele>454</ele>
        <time>2020-02-10T10:41:02Z</time>
      </trkpt>
      <trkpt lat="47.18962" lon="6.14303">
        <ele>454</ele>
        <time>2020-02-10T10:41:08Z</time>
      </trkpt>
      <trkpt lat="47.18899" lon="6.14283">
        <ele>455</ele>
        <time>2020-02-10T10:41:20Z</time>
      </trkpt>
      <trkpt lat="47.18724" lon="6.14275">
        <ele>469</ele>
        <time>2020-02-10T10:41:51Z</time>
      </trkpt>
      <trkpt lat="47.18673" lon="6.14257">
        <ele>473</ele>
        <time>2020-02-10T10:42:00Z</time>
      </trkpt>
      <trkpt lat="47.18624" lon="6.14218">
        <ele>477</ele>
        <time>2020-02-10T10:42:10Z</time>
      </trkpt>
      <trkpt lat="47.18383" lon="6.13982">
        <ele>469</ele>
        <time>2020-02-10T10:43:01Z</time>
      </trkpt>
      <trkpt lat="47.18365" lon="6.13975">
        <ele>468</ele>
        <time>2020-02-10T10:43:05Z</time>
      </trkpt>
      <trkpt lat="47.18339" lon="6.13979">
        <ele>467</ele>
        <time>2020-02-10T10:43:09Z</time>
      </trkpt>
      <trkpt lat="47.18329" lon="6.13973">
        <ele>466</ele>
        <time>2020-02-10T10:43:11Z</time>
      </trkpt>
      <trkpt lat="47.18321" lon="6.13956">
        <ele>466</ele>
        <time>2020-02-10T10:43:14Z</time>
      </trkpt>
      <trkpt lat="47.18318" lon="6.13916">
        <ele>466</ele>
        <time>2020-02-10T10:43:19Z</time>
      </trkpt>
      <trkpt lat="47.18293" lon="6.13869">
        <ele>465</ele>
        <time>2020-02-10T10:43:26Z</time>
      </trkpt>
      <trkpt lat="47.18287" lon="6.13847">
        <ele>465</ele>
        <time>2020-02-10T10:43:29Z</time>
      </trkpt>
      <trkpt lat="47.18271" lon="6.13621">
        <ele>466</ele>
        <time>2020-02-10T10:43:56Z</time>
      </trkpt>
      <trkpt lat="47.18271" lon="6.13621">
        <ele>466</ele>
        <time>2020-02-10T10:43:56Z</time>
      </trkpt>
      <trkpt lat="47.18261" lon="6.1351">
        <ele>467</ele>
        <time>2020-02-10T10:44:10Z</time>
      </trkpt>
      <trkpt lat="47.18256" lon="6.13355">
        <ele>470</ele>
        <time>2020-02-10T10:44:29Z</time>
      </trkpt>
      <trkpt lat="47.18262" lon="6.13145">
        <ele>471</ele>
        <time>2020-02-10T10:44:54Z</time>
      </trkpt>
      <trkpt lat="47.18281" lon="6.13009">
        <ele>474</ele>
        <time>2020-02-10T10:45:11Z</time>
      </trkpt>
      <trkpt lat="47.18323" lon="6.12815">
        <ele>477</ele>
        <time>2020-02-10T10:45:35Z</time>
      </trkpt>
      <trkpt lat="47.18324" lon="6.12586">
        <ele>487</ele>
        <time>2020-02-10T10:46:03Z</time>
      </trkpt>
      <trkpt lat="47.18329" lon="6.12494">
        <ele>492</ele>
        <time>2020-02-10T10:46:14Z</time>
      </trkpt>
      <trkpt lat="47.18357" lon="6.12301">
        <ele>498</ele>
        <time>2020-02-10T10:46:38Z</time>
      </trkpt>
      <trkpt lat="47.18358" lon="6.12195">
        <ele>500</ele>
        <time>2020-02-10T10:46:51Z</time>
      </trkpt>
      <trkpt lat="47.18348" lon="6.12115">
        <ele>500</ele>
        <time>2020-02-10T10:47:01Z</time>
      </trkpt>
      <trkpt lat="47.18336" lon="6.12054">
        <ele>502</ele>
        <time>2020-02-10T10:47:08Z</time>
      </trkpt>
      <trkpt lat="47.18274" lon="6.11812">
        <ele>494</ele>
        <time>2020-02-10T10:47:40Z</time>
      </trkpt>
      <trkpt lat="47.18258" lon="6.11725">
        <ele>489</ele>
        <time>2020-02-10T10:47:51Z</time>
      </trkpt>
      <trkpt lat="47.18267" lon="6.11681">
        <ele>484</ele>
        <time>2020-02-10T10:47:56Z</time>
      </trkpt>
      <trkpt lat="47.18286" lon="6.11646">
        <ele>479</ele>
        <time>2020-02-10T10:48:02Z</time>
      </trkpt>
      <trkpt lat="47.18287" lon="6.11637">
        <ele>479</ele>
        <time>2020-02-10T10:48:03Z</time>
      </trkpt>
      <trkpt lat="47.18269" lon="6.11475">
        <ele>468</ele>
        <time>2020-02-10T10:48:23Z</time>
      </trkpt>
      <trkpt lat="47.18249" lon="6.11421">
        <ele>465</ele>
        <time>2020-02-10T10:48:30Z</time>
      </trkpt>
      <trkpt lat="47.18238" lon="6.11403">
        <ele>464</ele>
        <time>2020-02-10T10:48:33Z</time>
      </trkpt>
      <trkpt lat="47.18192" lon="6.11376">
        <ele>461</ele>
        <time>2020-02-10T10:48:42Z</time>
      </trkpt>
      <trkpt lat="47.1818" lon="6.11355">
        <ele>460</ele>
        <time>2020-02-10T10:48:45Z</time>
      </trkpt>
      <trkpt lat="47.18193" lon="6.11166">
        <ele>450</ele>
        <time>2020-02-10T10:49:08Z</time>
      </trkpt>
      <trkpt lat="47.18193" lon="6.11166">
        <ele>450</ele>
        <time>2020-02-10T10:49:08Z</time>
      </trkpt>
      <trkpt lat="47.18202" lon="6.11045">
        <ele>446</ele>
        <time>2020-02-10T10:49:23Z</time>
      </trkpt>
      <trkpt lat="47.18202" lon="6.11045">
        <ele>446</ele>
        <time>2020-02-10T10:49:23Z</time>
      </trkpt>
      <trkpt lat="47.18332" lon="6.11016">
        <ele>443</ele>
        <time>2020-02-10T10:49:46Z</time>
      </trkpt>
      <trkpt lat="47.18332" lon="6.11016">
        <ele>443</ele>
        <time>2020-02-10T10:49:46Z</time>
      </trkpt>
      <trkpt lat="47.18313" lon="6.10992">
        <ele>443</ele>
        <time>2020-02-10T10:49:51Z</time>
      </trkpt>
      <trkpt lat="47.17951" lon="6.10667">
        <ele>447</ele>
        <time>2020-02-10T10:51:06Z</time>
      </trkpt>
      <trkpt lat="47.17951" lon="6.10667">
        <ele>447</ele>
        <time>2020-02-10T10:51:06Z</time>
      </trkpt>
      <trkpt lat="47.17865" lon="6.10586">
        <ele>452</ele>
        <time>2020-02-10T10:51:24Z</time>
      </trkpt>
      <trkpt lat="47.17806" lon="6.10493">
        <ele>457</ele>
        <time>2020-02-10T10:51:40Z</time>
      </trkpt>
      <trkpt lat="47.17715" lon="6.10366">
        <ele>462</ele>
        <time>2020-02-10T10:52:02Z</time>
      </trkpt>
      <trkpt lat="47.176" lon="6.10259">
        <ele>460</ele>
        <time>2020-02-10T10:52:26Z</time>
      </trkpt>
      <trkpt lat="47.17529" lon="6.10182">
        <ele>459</ele>
        <time>2020-02-10T10:52:42Z</time>
      </trkpt>
      <trkpt lat="47.17375" lon="6.09998">
        <ele>460</ele>
        <time>2020-02-10T10:53:17Z</time>
      </trkpt>
      <trkpt lat="47.17364" lon="6.09984">
        <ele>459</ele>
        <time>2020-02-10T10:53:20Z</time>
      </trkpt>
      <trkpt lat="47.17281" lon="6.09823">
        <ele>459</ele>
        <time>2020-02-10T10:53:44Z</time>
      </trkpt>
      <trkpt lat="47.17257" lon="6.09791">
        <ele>459</ele>
        <time>2020-02-10T10:53:50Z</time>
      </trkpt>
      <trkpt lat="47.17225" lon="6.09771">
        <ele>458</ele>
        <time>2020-02-10T10:53:56Z</time>
      </trkpt>
      <trkpt lat="47.17176" lon="6.09779">
        <ele>455</ele>
        <time>2020-02-10T10:54:05Z</time>
      </trkpt>
      <trkpt lat="47.17151" lon="6.09774">
        <ele>455</ele>
        <time>2020-02-10T10:54:09Z</time>
      </trkpt>
      <trkpt lat="47.17067" lon="6.09777">
        <ele>455</ele>
        <time>2020-02-10T10:54:24Z</time>
      </trkpt>
      <trkpt lat="47.17033" lon="6.09769">
        <ele>454</ele>
        <time>2020-02-10T10:54:30Z</time>
      </trkpt>
      <trkpt lat="47.16994" lon="6.09741">
        <ele>453</ele>
        <time>2020-02-10T10:54:38Z</time>
      </trkpt>
      <trkpt lat="47.16924" lon="6.0965">
        <ele>454</ele>
        <time>2020-02-10T10:54:55Z</time>
      </trkpt>
      <trkpt lat="47.16847" lon="6.09601">
        <ele>453</ele>
        <time>2020-02-10T10:55:10Z</time>
      </trkpt>
      <trkpt lat="47.16816" lon="6.09567">
        <ele>451</ele>
        <time>2020-02-10T10:55:17Z</time>
      </trkpt>
      <trkpt lat="47.16771" lon="6.09494">
        <ele>451</ele>
        <time>2020-02-10T10:55:28Z</time>
      </trkpt>
      <trkpt lat="47.16771" lon="6.09494">
        <ele>451</ele>
        <time>2020-02-10T10:55:28Z</time>
      </trkpt>
      <trkpt lat="47.16695" lon="6.09367">
        <ele>450</ele>
        <time>2020-02-10T10:55:49Z</time>
      </trkpt>
      <trkpt lat="47.16623" lon="6.09299">
        <ele>449</ele>
        <time>2020-02-10T10:56:04Z</time>
      </trkpt>
      <trkpt lat="47.1659" lon="6.09252">
        <ele>449</ele>
        <time>2020-02-10T10:56:12Z</time>
      </trkpt>
      <trkpt lat="47.16518" lon="6.09055">
        <ele>448</ele>
        <time>2020-02-10T10:56:39Z</time>
      </trkpt>
      <trkpt lat="47.16476" lon="6.0898">
        <ele>448</ele>
        <time>2020-02-10T10:56:51Z</time>
      </trkpt>
      <trkpt lat="47.16421" lon="6.08857">
        <ele>445</ele>
        <time>2020-02-10T10:57:09Z</time>
      </trkpt>
      <trkpt lat="47.16352" lon="6.08718">
        <ele>449</ele>
        <time>2020-02-10T10:57:30Z</time>
      </trkpt>
      <trkpt lat="47.16295" lon="6.08638">
        <ele>449</ele>
        <time>2020-02-10T10:57:44Z</time>
      </trkpt>
      <trkpt lat="47.16276" lon="6.08569">
        <ele>448</ele>
        <time>2020-02-10T10:57:53Z</time>
      </trkpt>
      <trkpt lat="47.16245" lon="6.08503">
        <ele>446</ele>
        <time>2020-02-10T10:58:03Z</time>
      </trkpt>
      <trkpt lat="47.16221" lon="6.08435">
        <ele>446</ele>
        <time>2020-02-10T10:58:12Z</time>
      </trkpt>
      <trkpt lat="47.16215" lon="6.084">
        <ele>446</ele>
        <time>2020-02-10T10:58:16Z</time>
      </trkpt>
      <trkpt lat="47.16219" lon="6.08285">
        <ele>446</ele>
        <time>2020-02-10T10:58:30Z</time>
      </trkpt>
      <trkpt lat="47.16214" lon="6.08262">
        <ele>446</ele>
        <time>2020-02-10T10:58:33Z</time>
      </trkpt>
      <trkpt lat="47.16075" lon="6.08098">
        <ele>442</ele>
        <time>2020-02-10T10:59:05Z</time>
      </trkpt>
      <trkpt lat="47.15952" lon="6.07935">
        <ele>444</ele>
        <time>2020-02-10T10:59:34Z</time>
      </trkpt>
      <trkpt lat="47.15952" lon="6.07935">
        <ele>444</ele>
        <time>2020-02-10T10:59:34Z</time>
      </trkpt>
      <trkpt lat="47.15794" lon="6.07671">
        <ele>444</ele>
        <time>2020-02-10T11:00:17Z</time>
      </trkpt>
      <trkpt lat="47.15768" lon="6.0761">
        <ele>443</ele>
        <time>2020-02-10T11:00:25Z</time>
      </trkpt>
      <trkpt lat="47.15643" lon="6.07465">
        <ele>445</ele>
        <time>2020-02-10T11:00:54Z</time>
      </trkpt>
      <trkpt lat="47.15628" lon="6.07442">
        <ele>445</ele>
        <time>2020-02-10T11:00:58Z</time>
      </trkpt>
      <trkpt lat="47.15589" lon="6.0736">
        <ele>448</ele>
        <time>2020-02-10T11:01:10Z</time>
      </trkpt>
      <trkpt lat="47.15512" lon="6.07308">
        <ele>450</ele>
        <time>2020-02-10T11:01:25Z</time>
      </trkpt>
      <trkpt lat="47.15436" lon="6.07211">
        <ele>454</ele>
        <time>2020-02-10T11:01:43Z</time>
      </trkpt>
      <trkpt lat="47.15412" lon="6.07152">
        <ele>457</ele>
        <time>2020-02-10T11:01:51Z</time>
      </trkpt>
      <trkpt lat="47.15402" lon="6.07081">
        <ele>458</ele>
        <time>2020-02-10T11:02:00Z</time>
      </trkpt>
      <trkpt lat="47.15402" lon="6.07081">
        <ele>458</ele>
        <time>2020-02-10T11:02:00Z</time>
      </trkpt>
      <trkpt lat="47.15358" lon="6.07042">
        <ele>457</ele>
        <time>2020-02-10T11:02:09Z</time>
      </trkpt>
      <trkpt lat="47.15311" lon="6.06956">
        <ele>457</ele>
        <time>2020-02-10T11:02:22Z</time>
      </trkpt>
      <trkpt lat="47.15272" lon="6.06917">
        <ele>458</ele>
        <time>2020-02-10T11:02:31Z</time>
      </trkpt>
      <trkpt lat="47.15168" lon="6.06901">
        <ele>460</ele>
        <time>2020-02-10T11:02:49Z</time>
      </trkpt>
      <trkpt lat="47.15168" lon="6.06901">
        <ele>460</ele>
        <time>2020-02-10T11:02:49Z</time>
      </trkpt>
      <trkpt lat="47.15173" lon="6.06873">
        <ele>460</ele>
        <time>2020-02-10T11:02:53Z</time>
      </trkpt>
      <trkpt lat="47.15171" lon="6.06858">
        <ele>460</ele>
        <time>2020-02-10T11:02:55Z</time>
      </trkpt>
      <trkpt lat="47.15145" lon="6.06813">
        <ele>459</ele>
        <time>2020-02-10T11:03:02Z</time>
      </trkpt>
      <trkpt lat="47.15079" lon="6.06745">
        <ele>457</ele>
        <time>2020-02-10T11:03:16Z</time>
      </trkpt>
      <trkpt lat="47.1506" lon="6.06719">
        <ele>457</ele>
        <time>2020-02-10T11:03:21Z</time>
      </trkpt>
      <trkpt lat="47.15014" lon="6.06625">
        <ele>457</ele>
        <time>2020-02-10T11:03:35Z</time>
      </trkpt>
      <trkpt lat="47.14964" lon="6.06545">
        <ele>457</ele>
        <time>2020-02-10T11:03:48Z</time>
      </trkpt>
      <trkpt lat="47.14958" lon="6.06525">
        <ele>457</ele>
        <time>2020-02-10T11:03:51Z</time>
      </trkpt>
      <trkpt lat="47.14957" lon="6.06503">
        <ele>457</ele>
        <time>2020-02-10T11:03:53Z</time>
      </trkpt>
      <trkpt lat="47.1498" lon="6.06403">
        <ele>455</ele>
        <time>2020-02-10T11:04:06Z</time>
      </trkpt>
      <trkpt lat="47.14976" lon="6.06367">
        <ele>454</ele>
        <time>2020-02-10T11:04:10Z</time>
      </trkpt>
      <trkpt lat="47.1489" lon="6.06118">
        <ele>452</ele>
        <time>2020-02-10T11:04:44Z</time>
      </trkpt>
      <trkpt lat="47.14824" lon="6.05912">
        <ele>454</ele>
        <time>2020-02-10T11:05:12Z</time>
      </trkpt>
      <trkpt lat="47.14824" lon="6.05912">
        <ele>454</ele>
        <time>2020-02-10T11:05:12Z</time>
      </trkpt>
      <trkpt lat="47.1481" lon="6.05862">
        <ele>453</ele>
        <time>2020-02-10T11:05:18Z</time>
      </trkpt>
      <trkpt lat="47.14808" lon="6.05831">
        <ele>453</ele>
        <time>2020-02-10T11:05:22Z</time>
      </trkpt>
      <trkpt lat="47.14836" lon="6.05721">
        <ele>452</ele>
        <time>2020-02-10T11:05:36Z</time>
      </trkpt>
      <trkpt lat="47.1484" lon="6.05668">
        <ele>453</ele>
        <time>2020-02-10T11:05:43Z</time>
      </trkpt>
      <trkpt lat="47.1482" lon="6.05569">
        <ele>455</ele>
        <time>2020-02-10T11:05:55Z</time>
      </trkpt>
      <trkpt lat="47.14817" lon="6.05392">
        <ele>456</ele>
        <time>2020-02-10T11:06:17Z</time>
      </trkpt>
      <trkpt lat="47.14807" lon="6.05328">
        <ele>457</ele>
        <time>2020-02-10T11:06:25Z</time>
      </trkpt>
      <trkpt lat="47.14791" lon="6.05292">
        <ele>457</ele>
        <time>2020-02-10T11:06:30Z</time>
      </trkpt>
      <trkpt lat="47.14725" lon="6.05196">
        <ele>458</ele>
        <time>2020-02-10T11:06:46Z</time>
      </trkpt>
      <trkpt lat="47.14707" lon="6.05163">
        <ele>458</ele>
        <time>2020-02-10T11:06:51Z</time>
      </trkpt>
      <trkpt lat="47.14648" lon="6.05002">
        <ele>459</ele>
        <time>2020-02-10T11:07:14Z</time>
      </trkpt>
      <trkpt lat="47.14615" lon="6.04941">
        <ele>460</ele>
        <time>2020-02-10T11:07:23Z</time>
      </trkpt>
      <trkpt lat="47.14438" lon="6.04716">
        <ele>457</ele>
        <time>2020-02-10T11:08:05Z</time>
      </trkpt>
      <trkpt lat="47.14338" lon="6.04713">
        <ele>456</ele>
        <time>2020-02-10T11:08:22Z</time>
      </trkpt>
      <trkpt lat="47.14299" lon="6.04705">
        <ele>456</ele>
        <time>2020-02-10T11:08:29Z</time>
      </trkpt>
      <trkpt lat="47.14249" lon="6.04681">
        <ele>455</ele>
        <time>2020-02-10T11:08:39Z</time>
      </trkpt>
      <trkpt lat="47.14231" lon="6.0468">
        <ele>455</ele>
        <time>2020-02-10T11:08:42Z</time>
      </trkpt>
      <trkpt lat="47.14186" lon="6.04697">
        <ele>454</ele>
        <time>2020-02-10T11:08:50Z</time>
      </trkpt>
      <trkpt lat="47.14131" lon="6.04745">
        <ele>452</ele>
        <time>2020-02-10T11:09:02Z</time>
      </trkpt>
      <trkpt lat="47.14123" lon="6.04744">
        <ele>452</ele>
        <time>2020-02-10T11:09:03Z</time>
      </trkpt>
      <trkpt lat="47.14115" lon="6.0474">
        <ele>451</ele>
        <time>2020-02-10T11:09:05Z</time>
      </trkpt>
      <trkpt lat="47.14074" lon="6.04693">
        <ele>450</ele>
        <time>2020-02-10T11:09:14Z</time>
      </trkpt>
      <trkpt lat="47.14065" lon="6.04677">
        <ele>450</ele>
        <time>2020-02-10T11:09:16Z</time>
      </trkpt>
      <trkpt lat="47.14019" lon="6.04547">
        <ele>449</ele>
        <time>2020-02-10T11:09:34Z</time>
      </trkpt>
      <trkpt lat="47.13997" lon="6.04502">
        <ele>449</ele>
        <time>2020-02-10T11:09:41Z</time>
      </trkpt>
      <trkpt lat="47.13963" lon="6.0444">
        <ele>448</ele>
        <time>2020-02-10T11:09:50Z</time>
      </trkpt>
      <trkpt lat="47.13938" lon="6.04407">
        <ele>448</ele>
        <time>2020-02-10T11:09:56Z</time>
      </trkpt>
      <trkpt lat="47.13924" lon="6.04396">
        <ele>448</ele>
        <time>2020-02-10T11:09:59Z</time>
      </trkpt>
      <trkpt lat="47.13909" lon="6.04389">
        <ele>448</ele>
        <time>2020-02-10T11:10:02Z</time>
      </trkpt>
      <trkpt lat="47.1383" lon="6.0438">
        <ele>446</ele>
        <time>2020-02-10T11:10:16Z</time>
      </trkpt>
      <trkpt lat="47.13801" lon="6.04351">
        <ele>447</ele>
        <time>2020-02-10T11:10:22Z</time>
      </trkpt>
      <trkpt lat="47.13751" lon="6.04327">
        <ele>447</ele>
        <time>2020-02-10T11:10:32Z</time>
      </trkpt>
      <trkpt lat="47.13707" lon="6.04286">
        <ele>447</ele>
        <time>2020-02-10T11:10:41Z</time>
      </trkpt>
      <trkpt lat="47.1368" lon="6.04272">
        <ele>447</ele>
        <time>2020-02-10T11:10:46Z</time>
      </trkpt>
      <trkpt lat="47.13603" lon="6.0427">
        <ele>449</ele>
        <time>2020-02-10T11:11:00Z</time>
      </trkpt>
      <trkpt lat="47.13548" lon="6.04235">
        <ele>452</ele>
        <time>2020-02-10T11:11:10Z</time>
      </trkpt>
      <trkpt lat="47.135" lon="6.04232">
        <ele>454</ele>
        <time>2020-02-10T11:11:19Z</time>
      </trkpt>
      <trkpt lat="47.13459" lon="6.04205">
        <ele>455</ele>
        <time>2020-02-10T11:11:27Z</time>
      </trkpt>
      <trkpt lat="47.13435" lon="6.04195">
        <ele>457</ele>
        <time>2020-02-10T11:11:31Z</time>
      </trkpt>
      <trkpt lat="47.13408" lon="6.04197">
        <ele>458</ele>
        <time>2020-02-10T11:11:36Z</time>
      </trkpt>
      <trkpt lat="47.13355" lon="6.0422">
        <ele>460</ele>
        <time>2020-02-10T11:11:46Z</time>
      </trkpt>
      <trkpt lat="47.13294" lon="6.04211">
        <ele>462</ele>
        <time>2020-02-10T11:11:57Z</time>
      </trkpt>
      <trkpt lat="47.13274" lon="6.04213">
        <ele>463</ele>
        <time>2020-02-10T11:12:01Z</time>
      </trkpt>
      <trkpt lat="47.13169" lon="6.04251">
        <ele>462</ele>
        <time>2020-02-10T11:12:20Z</time>
      </trkpt>
      <trkpt lat="47.13139" lon="6.04253">
        <ele>462</ele>
        <time>2020-02-10T11:12:25Z</time>
      </trkpt>
      <trkpt lat="47.13112" lon="6.04246">
        <ele>463</ele>
        <time>2020-02-10T11:12:30Z</time>
      </trkpt>
      <trkpt lat="47.13065" lon="6.04214">
        <ele>465</ele>
        <time>2020-02-10T11:12:39Z</time>
      </trkpt>
      <trkpt lat="47.12992" lon="6.04143">
        <ele>464</ele>
        <time>2020-02-10T11:12:55Z</time>
      </trkpt>
      <trkpt lat="47.12862" lon="6.03963">
        <ele>466</ele>
        <time>2020-02-10T11:13:27Z</time>
      </trkpt>
      <trkpt lat="47.12862" lon="6.03963">
        <ele>466</ele>
        <time>2020-02-10T11:13:27Z</time>
      </trkpt>
      <trkpt lat="47.12754" lon="6.03842">
        <ele>467</ele>
        <time>2020-02-10T11:13:51Z</time>
      </trkpt>
      <trkpt lat="47.12688" lon="6.03808">
        <ele>468</ele>
        <time>2020-02-10T11:14:03Z</time>
      </trkpt>
      <trkpt lat="47.1262" lon="6.03737">
        <ele>467</ele>
        <time>2020-02-10T11:14:18Z</time>
      </trkpt>
      <trkpt lat="47.12492" lon="6.03652">
        <ele>464</ele>
        <time>2020-02-10T11:14:43Z</time>
      </trkpt>
      <trkpt lat="47.12473" lon="6.03634">
        <ele>464</ele>
        <time>2020-02-10T11:14:47Z</time>
      </trkpt>
      <trkpt lat="47.12459" lon="6.03605">
        <ele>464</ele>
        <time>2020-02-10T11:14:51Z</time>
      </trkpt>
      <trkpt lat="47.12454" lon="6.03584">
        <ele>464</ele>
        <time>2020-02-10T11:14:54Z</time>
      </trkpt>
      <trkpt lat="47.1242" lon="6.03298">
        <ele>468</ele>
        <time>2020-02-10T11:15:29Z</time>
      </trkpt>
      <trkpt lat="47.12406" lon="6.03231">
        <ele>468</ele>
        <time>2020-02-10T11:15:38Z</time>
      </trkpt>
      <trkpt lat="47.12393" lon="6.03202">
        <ele>468</ele>
        <time>2020-02-10T11:15:42Z</time>
      </trkpt>
      <trkpt lat="47.1223" lon="6.02991">
        <ele>469</ele>
        <time>2020-02-10T11:16:21Z</time>
      </trkpt>
      <trkpt lat="47.12186" lon="6.02948">
        <ele>470</ele>
        <time>2020-02-10T11:16:30Z</time>
      </trkpt>
      <trkpt lat="47.12111" lon="6.02906">
        <ele>469</ele>
        <time>2020-02-10T11:16:44Z</time>
      </trkpt>
      <trkpt lat="47.1205" lon="6.02829">
        <ele>467</ele>
        <time>2020-02-10T11:16:59Z</time>
      </trkpt>
      <trkpt lat="47.12035" lon="6.02819">
        <ele>467</ele>
        <time>2020-02-10T11:17:01Z</time>
      </trkpt>
      <trkpt lat="47.12035" lon="6.02819">
        <ele>467</ele>
        <time>2020-02-10T11:17:01Z</time>
      </trkpt>
      <trkpt lat="47.12022" lon="6.02832">
        <ele>466</ele>
        <time>2020-02-10T11:17:04Z</time>
      </trkpt>
      <trkpt lat="47.11945" lon="6.02952">
        <ele>464</ele>
        <time>2020-02-10T11:17:24Z</time>
      </trkpt>
      <trkpt lat="47.11945" lon="6.02952">
        <ele>464</ele>
        <time>2020-02-10T11:17:24Z</time>
      </trkpt>
      <trkpt lat="47.11919" lon="6.02896">
        <ele>464</ele>
        <time>2020-02-10T11:17:32Z</time>
      </trkpt>
      <trkpt lat="47.11902" lon="6.0289">
        <ele>465</ele>
        <time>2020-02-10T11:17:36Z</time>
      </trkpt>
      <trkpt lat="47.11778" lon="6.02678">
        <ele>463</ele>
        <time>2020-02-10T11:18:09Z</time>
      </trkpt>
      <trkpt lat="47.11772" lon="6.02635">
        <ele>462</ele>
        <time>2020-02-10T11:18:15Z</time>
      </trkpt>
      <trkpt lat="47.11772" lon="6.02594">
        <ele>462</ele>
        <time>2020-02-10T11:18:20Z</time>
      </trkpt>
      <trkpt lat="47.11784" lon="6.02546">
        <ele>462</ele>
        <time>2020-02-10T11:18:26Z</time>
      </trkpt>
      <trkpt lat="47.11795" lon="6.02525">
        <ele>462</ele>
        <time>2020-02-10T11:18:29Z</time>
      </trkpt>
      <trkpt lat="47.11795" lon="6.02525">
        <ele>462</ele>
        <time>2020-02-10T11:18:29Z</time>
      </trkpt>
      <trkpt lat="47.11724" lon="6.02457">
        <ele>460</ele>
        <time>2020-02-10T11:18:44Z</time>
      </trkpt>
      <trkpt lat="47.11677" lon="6.02419">
        <ele>459</ele>
        <time>2020-02-10T11:18:54Z</time>
      </trkpt>
      <trkpt lat="47.1143" lon="6.02283">
        <ele>449</ele>
        <time>2020-02-10T11:19:41Z</time>
      </trkpt>
      <trkpt lat="47.11403" lon="6.02261">
        <ele>448</ele>
        <time>2020-02-10T11:19:46Z</time>
      </trkpt>
      <trkpt lat="47.11265" lon="6.02041">
        <ele>441</ele>
        <time>2020-02-10T11:20:22Z</time>
      </trkpt>
      <trkpt lat="47.11237" lon="6.02008">
        <ele>440</ele>
        <time>2020-02-10T11:20:29Z</time>
      </trkpt>
      <trkpt lat="47.11237" lon="6.02008">
        <ele>440</ele>
        <time>2020-02-10T11:20:29Z</time>
      </trkpt>
      <trkpt lat="47.11089" lon="6.01817">
        <ele>433</ele>
        <time>2020-02-10T11:21:04Z</time>
      </trkpt>
      <trkpt lat="47.10936" lon="6.01678">
        <ele>428</ele>
        <time>2020-02-10T11:21:36Z</time>
      </trkpt>
      <trkpt lat="47.10845" lon="6.01576">
        <ele>423</ele>
        <time>2020-02-10T11:21:56Z</time>
      </trkpt>
      <trkpt lat="47.10599" lon="6.01242">
        <ele>416</ele>
        <time>2020-02-10T11:22:56Z</time>
      </trkpt>
      <trkpt lat="47.10407" lon="6.01046">
        <ele>410</ele>
        <time>2020-02-10T11:23:37Z</time>
      </trkpt>
      <trkpt lat="47.10391" lon="6.01035">
        <ele>409</ele>
        <time>2020-02-10T11:23:41Z</time>
      </trkpt>
      <trkpt lat="47.10355" lon="6.01022">
        <ele>408</ele>
        <time>2020-02-10T11:23:47Z</time>
      </trkpt>
      <trkpt lat="47.10245" lon="6.01011">
        <ele>404</ele>
        <time>2020-02-10T11:24:07Z</time>
      </trkpt>
      <trkpt lat="47.10056" lon="6.00952">
        <ele>400</ele>
        <time>2020-02-10T11:24:41Z</time>
      </trkpt>
      <trkpt lat="47.09823" lon="6.009">
        <ele>392</ele>
        <time>2020-02-10T11:25:23Z</time>
      </trkpt>
      <trkpt lat="47.09774" lon="6.00895">
        <ele>390</ele>
        <time>2020-02-10T11:25:32Z</time>
      </trkpt>
      <trkpt lat="47.09745" lon="6.00917">
        <ele>390</ele>
        <time>2020-02-10T11:25:38Z</time>
      </trkpt>
      <trkpt lat="47.09714" lon="6.00931">
        <ele>391</ele>
        <time>2020-02-10T11:25:43Z</time>
      </trkpt>
      <trkpt lat="47.09689" lon="6.0092">
        <ele>390</ele>
        <time>2020-02-10T11:25:48Z</time>
      </trkpt>
      <trkpt lat="47.09664" lon="6.00886">
        <ele>389</ele>
        <time>2020-02-10T11:25:54Z</time>
      </trkpt>
      <trkpt lat="47.0964" lon="6.0084">
        <ele>388</ele>
        <time>2020-02-10T11:26:01Z</time>
      </trkpt>
      <trkpt lat="47.0961" lon="6.00775">
        <ele>386</ele>
        <time>2020-02-10T11:26:11Z</time>
      </trkpt>
      <trkpt lat="47.09585" lon="6.00696">
        <ele>383</ele>
        <time>2020-02-10T11:26:21Z</time>
      </trkpt>
      <trkpt lat="47.09572" lon="6.00669">
        <ele>381</ele>
        <time>2020-02-10T11:26:25Z</time>
      </trkpt>
      <trkpt lat="47.09563" lon="6.00656">
        <ele>381</ele>
        <time>2020-02-10T11:26:27Z</time>
      </trkpt>
      <trkpt lat="47.09508" lon="6.00614">
        <ele>380</ele>
        <time>2020-02-10T11:26:38Z</time>
      </trkpt>
      <trkpt lat="47.09494" lon="6.00596">
        <ele>379</ele>
        <time>2020-02-10T11:26:42Z</time>
      </trkpt>
      <trkpt lat="47.09463" lon="6.00518">
        <ele>378</ele>
        <time>2020-02-10T11:26:53Z</time>
      </trkpt>
      <trkpt lat="47.09459" lon="6.00471">
        <ele>377</ele>
        <time>2020-02-10T11:26:58Z</time>
      </trkpt>
      <trkpt lat="47.09459" lon="6.00471">
        <ele>377</ele>
        <time>2020-02-10T11:26:58Z</time>
      </trkpt>
      <trkpt lat="47.09478" lon="6.00349">
        <ele>377</ele>
        <time>2020-02-10T11:27:14Z</time>
      </trkpt>
      <trkpt lat="47.09395" lon="6.00206">
        <ele>377</ele>
        <time>2020-02-10T11:27:36Z</time>
      </trkpt>
      <trkpt lat="47.09379" lon="6.00168">
        <ele>378</ele>
        <time>2020-02-10T11:27:42Z</time>
      </trkpt>
      <trkpt lat="47.09333" lon="5.99972">
        <ele>373</ele>
        <time>2020-02-10T11:28:07Z</time>
      </trkpt>
      <trkpt lat="47.09309" lon="5.99832">
        <ele>373</ele>
        <time>2020-02-10T11:28:24Z</time>
      </trkpt>
      <trkpt lat="47.09286" lon="5.99682">
        <ele>370</ele>
        <time>2020-02-10T11:28:43Z</time>
      </trkpt>
      <trkpt lat="47.09276" lon="5.99541">
        <ele>368</ele>
        <time>2020-02-10T11:29:00Z</time>
      </trkpt>
      <trkpt lat="47.09266" lon="5.99512">
        <ele>366</ele>
        <time>2020-02-10T11:29:04Z</time>
      </trkpt>
      <trkpt lat="47.09235" lon="5.99467">
        <ele>368</ele>
        <time>2020-02-10T11:29:12Z</time>
      </trkpt>
      <trkpt lat="47.09227" lon="5.99436">
        <ele>369</ele>
        <time>2020-02-10T11:29:16Z</time>
      </trkpt>
      <trkpt lat="47.09231" lon="5.99324">
        <ele>368</ele>
        <time>2020-02-10T11:29:29Z</time>
      </trkpt>
      <trkpt lat="47.09248" lon="5.99204">
        <ele>360</ele>
        <time>2020-02-10T11:29:44Z</time>
      </trkpt>
      <trkpt lat="47.09248" lon="5.99152">
        <ele>359</ele>
        <time>2020-02-10T11:29:51Z</time>
      </trkpt>
      <trkpt lat="47.09228" lon="5.99051">
        <ele>359</ele>
        <time>2020-02-10T11:30:03Z</time>
      </trkpt>
      <trkpt lat="47.09181" lon="5.98911">
        <ele>348</ele>
        <time>2020-02-10T11:30:22Z</time>
      </trkpt>
      <trkpt lat="47.09151" lon="5.98857">
        <ele>341</ele>
        <time>2020-02-10T11:30:31Z</time>
      </trkpt>
      <trkpt lat="47.09089" lon="5.98781">
        <ele>337</ele>
        <time>2020-02-10T11:30:45Z</time>
      </trkpt>
      <trkpt lat="47.09008" lon="5.98704">
        <ele>325</ele>
        <time>2020-02-10T11:31:02Z</time>
      </trkpt>
      <trkpt lat="47.08986" lon="5.98698">
        <ele>322</ele>
        <time>2020-02-10T11:31:06Z</time>
      </trkpt>
      <trkpt lat="47.08897" lon="5.98731">
        <ele>327</ele>
        <time>2020-02-10T11:31:23Z</time>
      </trkpt>
      <trkpt lat="47.08818" lon="5.9874">
        <ele>321</ele>
        <time>2020-02-10T11:31:37Z</time>
      </trkpt>
      <trkpt lat="47.08752" lon="5.98738">
        <ele>316</ele>
        <time>2020-02-10T11:31:48Z</time>
      </trkpt>
      <trkpt lat="47.08693" lon="5.98718">
        <ele>312</ele>
        <time>2020-02-10T11:31:59Z</time>
      </trkpt>
      <trkpt lat="47.08673" lon="5.98698">
        <ele>308</ele>
        <time>2020-02-10T11:32:03Z</time>
      </trkpt>
      <trkpt lat="47.08662" lon="5.98676">
        <ele>303</ele>
        <time>2020-02-10T11:32:07Z</time>
      </trkpt>
      <trkpt lat="47.0866" lon="5.98663">
        <ele>301</ele>
        <time>2020-02-10T11:32:08Z</time>
      </trkpt>
      <trkpt lat="47.08661" lon="5.985">
        <ele>301</ele>
        <time>2020-02-10T11:32:28Z</time>
      </trkpt>
      <trkpt lat="47.08661" lon="5.985">
        <ele>301</ele>
        <time>2020-02-10T11:32:28Z</time>
      </trkpt>
      <trkpt lat="47.08642" lon="5.98495">
        <ele>302</ele>
        <time>2020-02-10T11:32:32Z</time>
      </trkpt>
      <trkpt lat="47.08642" lon="5.98495">
        <ele>302</ele>
        <time>2020-02-10T11:32:32Z</time>
      </trkpt>
      <trkpt lat="47.08624" lon="5.98502">
        <ele>300</ele>
        <time>2020-02-10T11:32:35Z</time>
      </trkpt>
      <trkpt lat="47.08556" lon="5.98495">
        <ele>300</ele>
        <time>2020-02-10T11:32:47Z</time>
      </trkpt>
      <trkpt lat="47.08278" lon="5.98437">
        <ele>301</ele>
        <time>2020-02-10T11:33:37Z</time>
      </trkpt>
      <trkpt lat="47.08087" lon="5.98372">
        <ele>300</ele>
        <time>2020-02-10T11:34:12Z</time>
      </trkpt>
      <trkpt lat="47.08044" lon="5.98347">
        <ele>299</ele>
        <time>2020-02-10T11:34:20Z</time>
      </trkpt>
      <trkpt lat="47.07913" lon="5.98244">
        <ele>302</ele>
        <time>2020-02-10T11:34:47Z</time>
      </trkpt>
      <trkpt lat="47.07887" lon="5.98216">
        <ele>305</ele>
        <time>2020-02-10T11:34:52Z</time>
      </trkpt>
      <trkpt lat="47.07824" lon="5.98128">
        <ele>307</ele>
        <time>2020-02-10T11:35:08Z</time>
      </trkpt>
      <trkpt lat="47.07687" lon="5.97999">
        <ele>303</ele>
        <time>2020-02-10T11:35:37Z</time>
      </trkpt>
      <trkpt lat="47.07639" lon="5.97966">
        <ele>310</ele>
        <time>2020-02-10T11:35:46Z</time>
      </trkpt>
      <trkpt lat="47.07583" lon="5.97939">
        <ele>312</ele>
        <time>2020-02-10T11:35:57Z</time>
      </trkpt>
      <trkpt lat="47.07556" lon="5.97935">
        <ele>313</ele>
        <time>2020-02-10T11:36:01Z</time>
      </trkpt>
      <trkpt lat="47.07517" lon="5.97935">
        <ele>313</ele>
        <time>2020-02-10T11:36:08Z</time>
      </trkpt>
      <trkpt lat="47.07451" lon="5.97949">
        <ele>315</ele>
        <time>2020-02-10T11:36:20Z</time>
      </trkpt>
      <trkpt lat="47.074" lon="5.97987">
        <ele>313</ele>
        <time>2020-02-10T11:36:30Z</time>
      </trkpt>
      <trkpt lat="47.07376" lon="5.98014">
        <ele>317</ele>
        <time>2020-02-10T11:36:36Z</time>
      </trkpt>
      <trkpt lat="47.07342" lon="5.98067">
        <ele>319</ele>
        <time>2020-02-10T11:36:45Z</time>
      </trkpt>
      <trkpt lat="47.07297" lon="5.98184">
        <ele>315</ele>
        <time>2020-02-10T11:37:01Z</time>
      </trkpt>
      <trkpt lat="47.0724" lon="5.98372">
        <ele>311</ele>
        <time>2020-02-10T11:37:26Z</time>
      </trkpt>
      <trkpt lat="47.07226" lon="5.98454">
        <ele>311</ele>
        <time>2020-02-10T11:37:36Z</time>
      </trkpt>
      <trkpt lat="47.07202" lon="5.98685">
        <ele>310</ele>
        <time>2020-02-10T11:38:04Z</time>
      </trkpt>
      <trkpt lat="47.07193" lon="5.9872">
        <ele>308</ele>
        <time>2020-02-10T11:38:09Z</time>
      </trkpt>
      <trkpt lat="47.07163" lon="5.98769">
        <ele>308</ele>
        <time>2020-02-10T11:38:17Z</time>
      </trkpt>
      <trkpt lat="47.07146" lon="5.98808">
        <ele>308</ele>
        <time>2020-02-10T11:38:23Z</time>
      </trkpt>
      <trkpt lat="47.07145" lon="5.98819">
        <ele>307</ele>
        <time>2020-02-10T11:38:24Z</time>
      </trkpt>
      <trkpt lat="47.07147" lon="5.98834">
        <ele>304</ele>
        <time>2020-02-10T11:38:26Z</time>
      </trkpt>
      <trkpt lat="47.07188" lon="5.98903">
        <ele>298</ele>
        <time>2020-02-10T11:38:37Z</time>
      </trkpt>
      <trkpt lat="47.07195" lon="5.98953">
        <ele>301</ele>
        <time>2020-02-10T11:38:43Z</time>
      </trkpt>
      <trkpt lat="47.0722" lon="5.99004">
        <ele>303</ele>
        <time>2020-02-10T11:38:51Z</time>
      </trkpt>
      <trkpt lat="47.07223" lon="5.99029">
        <ele>305</ele>
        <time>2020-02-10T11:38:54Z</time>
      </trkpt>
      <trkpt lat="47.07218" lon="5.99132">
        <ele>311</ele>
        <time>2020-02-10T11:39:06Z</time>
      </trkpt>
      <trkpt lat="47.07203" lon="5.99183">
        <ele>313</ele>
        <time>2020-02-10T11:39:13Z</time>
      </trkpt>
      <trkpt lat="47.07137" lon="5.99255">
        <ele>319</ele>
        <time>2020-02-10T11:39:28Z</time>
      </trkpt>
      <trkpt lat="47.0712" lon="5.99249">
        <ele>322</ele>
        <time>2020-02-10T11:39:31Z</time>
      </trkpt>
      <trkpt lat="47.07062" lon="5.9921">
        <ele>325</ele>
        <time>2020-02-10T11:39:42Z</time>
      </trkpt>
      <trkpt lat="47.07036" lon="5.99205">
        <ele>325</ele>
        <time>2020-02-10T11:39:47Z</time>
      </trkpt>
      <trkpt lat="47.07033" lon="5.99209">
        <ele>326</ele>
        <time>2020-02-10T11:39:47Z</time>
      </trkpt>
      <trkpt lat="47.07033" lon="5.99222">
        <ele>328</ele>
        <time>2020-02-10T11:39:49Z</time>
      </trkpt>
      <trkpt lat="47.0708" lon="5.99285">
        <ele>324</ele>
        <time>2020-02-10T11:40:00Z</time>
      </trkpt>
      <trkpt lat="47.07081" lon="5.99303">
        <ele>322</ele>
        <time>2020-02-10T11:40:02Z</time>
      </trkpt>
      <trkpt lat="47.07077" lon="5.99309">
        <ele>322</ele>
        <time>2020-02-10T11:40:04Z</time>
      </trkpt>
      <trkpt lat="47.07061" lon="5.99309">
        <ele>324</ele>
        <time>2020-02-10T11:40:06Z</time>
      </trkpt>
      <trkpt lat="47.07029" lon="5.99269">
        <ele>332</ele>
        <time>2020-02-10T11:40:14Z</time>
      </trkpt>
      <trkpt lat="47.07012" lon="5.9926">
        <ele>334</ele>
        <time>2020-02-10T11:40:17Z</time>
      </trkpt>
      <trkpt lat="47.06895" lon="5.99256">
        <ele>343</ele>
        <time>2020-02-10T11:40:38Z</time>
      </trkpt>
      <trkpt lat="47.06819" lon="5.99271">
        <ele>350</ele>
        <time>2020-02-10T11:40:52Z</time>
      </trkpt>
      <trkpt lat="47.068" lon="5.99282">
        <ele>353</ele>
        <time>2020-02-10T11:40:55Z</time>
      </trkpt>
      <trkpt lat="47.06798" lon="5.99293">
        <ele>354</ele>
        <time>2020-02-10T11:40:57Z</time>
      </trkpt>
      <trkpt lat="47.06802" lon="5.99317">
        <ele>358</ele>
        <time>2020-02-10T11:41:00Z</time>
      </trkpt>
      <trkpt lat="47.06824" lon="5.99363">
        <ele>353</ele>
        <time>2020-02-10T11:41:06Z</time>
      </trkpt>
      <trkpt lat="47.06826" lon="5.99382">
        <ele>349</ele>
        <time>2020-02-10T11:41:09Z</time>
      </trkpt>
      <trkpt lat="47.06821" lon="5.99391">
        <ele>348</ele>
        <time>2020-02-10T11:41:10Z</time>
      </trkpt>
      <trkpt lat="47.06742" lon="5.99367">
        <ele>367</ele>
        <time>2020-02-10T11:41:24Z</time>
      </trkpt>
      <trkpt lat="47.06597" lon="5.9936">
        <ele>374</ele>
        <time>2020-02-10T11:41:50Z</time>
      </trkpt>
      <trkpt lat="47.06565" lon="5.99369">
        <ele>372</ele>
        <time>2020-02-10T11:41:56Z</time>
      </trkpt>
      <trkpt lat="47.06515" lon="5.99397">
        <ele>374</ele>
        <time>2020-02-10T11:42:06Z</time>
      </trkpt>
      <trkpt lat="47.06481" lon="5.99428">
        <ele>379</ele>
        <time>2020-02-10T11:42:13Z</time>
      </trkpt>
      <trkpt lat="47.06463" lon="5.99448">
        <ele>380</ele>
        <time>2020-02-10T11:42:17Z</time>
      </trkpt>
      <trkpt lat="47.06379" lon="5.99569">
        <ele>388</ele>
        <time>2020-02-10T11:42:38Z</time>
      </trkpt>
      <trkpt lat="47.06355" lon="5.99595">
        <ele>387</ele>
        <time>2020-02-10T11:42:43Z</time>
      </trkpt>
      <trkpt lat="47.06326" lon="5.99608">
        <ele>386</ele>
        <time>2020-02-10T11:42:48Z</time>
      </trkpt>
      <trkpt lat="47.06245" lon="5.99628">
        <ele>386</ele>
        <time>2020-02-10T11:43:03Z</time>
      </trkpt>
      <trkpt lat="47.06163" lon="5.99663">
        <ele>388</ele>
        <time>2020-02-10T11:43:18Z</time>
      </trkpt>
      <trkpt lat="47.06115" lon="5.99667">
        <ele>389</ele>
        <time>2020-02-10T11:43:27Z</time>
      </trkpt>
      <trkpt lat="47.06077" lon="5.99664">
        <ele>389</ele>
        <time>2020-02-10T11:43:33Z</time>
      </trkpt>
      <trkpt lat="47.06035" lon="5.99645">
        <ele>391</ele>
        <time>2020-02-10T11:43:41Z</time>
      </trkpt>
      <trkpt lat="47.05811" lon="5.99477">
        <ele>399</ele>
        <time>2020-02-10T11:44:26Z</time>
      </trkpt>
      <trkpt lat="47.05787" lon="5.99453">
        <ele>400</ele>
        <time>2020-02-10T11:44:31Z</time>
      </trkpt>
      <trkpt lat="47.05693" lon="5.99309">
        <ele>400</ele>
        <time>2020-02-10T11:44:55Z</time>
      </trkpt>
      <trkpt lat="47.05674" lon="5.99296">
        <ele>401</ele>
        <time>2020-02-10T11:44:59Z</time>
      </trkpt>
      <trkpt lat="47.05656" lon="5.99298">
        <ele>402</ele>
        <time>2020-02-10T11:45:02Z</time>
      </trkpt>
      <trkpt lat="47.05641" lon="5.99308">
        <ele>402</ele>
        <time>2020-02-10T11:45:05Z</time>
      </trkpt>
      <trkpt lat="47.05641" lon="5.99308">
        <ele>402</ele>
        <time>2020-02-10T11:45:05Z</time>
      </trkpt>
      <trkpt lat="47.05612" lon="5.99267">
        <ele>402</ele>
        <time>2020-02-10T11:45:12Z</time>
      </trkpt>
      <trkpt lat="47.05581" lon="5.99236">
        <ele>402</ele>
        <time>2020-02-10T11:45:19Z</time>
      </trkpt>
      <trkpt lat="47.05581" lon="5.99236">
        <ele>402</ele>
        <time>2020-02-10T11:45:19Z</time>
      </trkpt>
      <trkpt lat="47.05513" lon="5.99371">
        <ele>403</ele>
        <time>2020-02-10T11:45:39Z</time>
      </trkpt>
      <trkpt lat="47.05513" lon="5.99371">
        <ele>403</ele>
        <time>2020-02-10T11:45:39Z</time>
      </trkpt>
      <trkpt lat="47.05537" lon="5.99395">
        <ele>404</ele>
        <time>2020-02-10T11:45:45Z</time>
      </trkpt>
      <trkpt lat="47.05666" lon="5.9956">
        <ele>408</ele>
        <time>2020-02-10T11:46:15Z</time>
      </trkpt>
      <trkpt lat="47.05701" lon="5.99617">
        <ele>408</ele>
        <time>2020-02-10T11:46:24Z</time>
      </trkpt>
      <trkpt lat="47.0573" lon="5.99683">
        <ele>408</ele>
        <time>2020-02-10T11:46:34Z</time>
      </trkpt>
      <trkpt lat="47.0578" lon="5.9973">
        <ele>409</ele>
        <time>2020-02-10T11:46:44Z</time>
      </trkpt>
      <trkpt lat="47.05795" lon="5.9975">
        <ele>409</ele>
        <time>2020-02-10T11:46:48Z</time>
      </trkpt>
      <trkpt lat="47.05907" lon="5.99958">
        <ele>412</ele>
        <time>2020-02-10T11:47:20Z</time>
      </trkpt>
      <trkpt lat="47.05949" lon="6.00024">
        <ele>413</ele>
        <time>2020-02-10T11:47:31Z</time>
      </trkpt>
      <trkpt lat="47.05954" lon="6.00071">
        <ele>413</ele>
        <time>2020-02-10T11:47:37Z</time>
      </trkpt>
      <trkpt lat="47.05955" lon="6.002">
        <ele>415</ele>
        <time>2020-02-10T11:47:53Z</time>
      </trkpt>
      <trkpt lat="47.05958" lon="6.0022">
        <ele>415</ele>
        <time>2020-02-10T11:47:55Z</time>
      </trkpt>
      <trkpt lat="47.05971" lon="6.00256">
        <ele>416</ele>
        <time>2020-02-10T11:48:00Z</time>
      </trkpt>
      <trkpt lat="47.06133" lon="6.00578">
        <ele>422</ele>
        <time>2020-02-10T11:48:48Z</time>
      </trkpt>
      <trkpt lat="47.0629" lon="6.00827">
        <ele>426</ele>
        <time>2020-02-10T11:49:30Z</time>
      </trkpt>
      <trkpt lat="47.06402" lon="6.01044">
        <ele>426</ele>
        <time>2020-02-10T11:50:03Z</time>
      </trkpt>
      <trkpt lat="47.0644" lon="6.01131">
        <ele>429</ele>
        <time>2020-02-10T11:50:15Z</time>
      </trkpt>
      <trkpt lat="47.06486" lon="6.01276">
        <ele>436</ele>
        <time>2020-02-10T11:50:35Z</time>
      </trkpt>
      <trkpt lat="47.06506" lon="6.01318">
        <ele>437</ele>
        <time>2020-02-10T11:50:41Z</time>
      </trkpt>
      <trkpt lat="47.06547" lon="6.01377">
        <ele>439</ele>
        <time>2020-02-10T11:50:51Z</time>
      </trkpt>
      <trkpt lat="47.06611" lon="6.01445">
        <ele>440</ele>
        <time>2020-02-10T11:51:05Z</time>
      </trkpt>
      <trkpt lat="47.06691" lon="6.01544">
        <ele>437</ele>
        <time>2020-02-10T11:51:24Z</time>
      </trkpt>
      <trkpt lat="47.06762" lon="6.01662">
        <ele>436</ele>
        <time>2020-02-10T11:51:43Z</time>
      </trkpt>
      <trkpt lat="47.06827" lon="6.01732">
        <ele>426</ele>
        <time>2020-02-10T11:51:57Z</time>
      </trkpt>
      <trkpt lat="47.06849" lon="6.01773">
        <ele>412</ele>
        <time>2020-02-10T11:52:03Z</time>
      </trkpt>
      <trkpt lat="47.0685" lon="6.01783">
        <ele>410</ele>
        <time>2020-02-10T11:52:05Z</time>
      </trkpt>
      <trkpt lat="47.06842" lon="6.01795">
        <ele>412</ele>
        <time>2020-02-10T11:52:07Z</time>
      </trkpt>
      <trkpt lat="47.06822" lon="6.01793">
        <ele>419</ele>
        <time>2020-02-10T11:52:10Z</time>
      </trkpt>
      <trkpt lat="47.06755" lon="6.01766">
        <ele>428</ele>
        <time>2020-02-10T11:52:23Z</time>
      </trkpt>
      <trkpt lat="47.06686" lon="6.01767">
        <ele>428</ele>
        <time>2020-02-10T11:52:35Z</time>
      </trkpt>
      <trkpt lat="47.06639" lon="6.01779">
        <ele>425</ele>
        <time>2020-02-10T11:52:43Z</time>
      </trkpt>
      <trkpt lat="47.06611" lon="6.01797">
        <ele>422</ele>
        <time>2020-02-10T11:52:49Z</time>
      </trkpt>
      <trkpt lat="47.06605" lon="6.0181">
        <ele>421</ele>
        <time>2020-02-10T11:52:51Z</time>
      </trkpt>
      <trkpt lat="47.06602" lon="6.0183">
        <ele>420</ele>
        <time>2020-02-10T11:52:53Z</time>
      </trkpt>
      <trkpt lat="47.06605" lon="6.01851">
        <ele>418</ele>
        <time>2020-02-10T11:52:56Z</time>
      </trkpt>
      <trkpt lat="47.06618" lon="6.01876">
        <ele>415</ele>
        <time>2020-02-10T11:53:00Z</time>
      </trkpt>
      <trkpt lat="47.06624" lon="6.01897">
        <ele>412</ele>
        <time>2020-02-10T11:53:02Z</time>
      </trkpt>
      <trkpt lat="47.06619" lon="6.01917">
        <ele>409</ele>
        <time>2020-02-10T11:53:05Z</time>
      </trkpt>
      <trkpt lat="47.06611" lon="6.01922">
        <ele>407</ele>
        <time>2020-02-10T11:53:06Z</time>
      </trkpt>
      <trkpt lat="47.06595" lon="6.01922">
        <ele>406</ele>
        <time>2020-02-10T11:53:09Z</time>
      </trkpt>
      <trkpt lat="47.06568" lon="6.01918">
        <ele>405</ele>
        <time>2020-02-10T11:53:14Z</time>
      </trkpt>
      <trkpt lat="47.06544" lon="6.01908">
        <ele>407</ele>
        <time>2020-02-10T11:53:19Z</time>
      </trkpt>
      <trkpt lat="47.0653" lon="6.01909">
        <ele>407</ele>
        <time>2020-02-10T11:53:21Z</time>
      </trkpt>
      <trkpt lat="47.06503" lon="6.01931">
        <ele>402</ele>
        <time>2020-02-10T11:53:27Z</time>
      </trkpt>
      <trkpt lat="47.06474" lon="6.01965">
        <ele>398</ele>
        <time>2020-02-10T11:53:33Z</time>
      </trkpt>
      <trkpt lat="47.06452" lon="6.0198">
        <ele>396</ele>
        <time>2020-02-10T11:53:37Z</time>
      </trkpt>
      <trkpt lat="47.06437" lon="6.01984">
        <ele>396</ele>
        <time>2020-02-10T11:53:40Z</time>
      </trkpt>
      <trkpt lat="47.06391" lon="6.01963">
        <ele>398</ele>
        <time>2020-02-10T11:53:49Z</time>
      </trkpt>
      <trkpt lat="47.06373" lon="6.01965">
        <ele>398</ele>
        <time>2020-02-10T11:53:52Z</time>
      </trkpt>
      <trkpt lat="47.06357" lon="6.01976">
        <ele>398</ele>
        <time>2020-02-10T11:53:55Z</time>
      </trkpt>
      <trkpt lat="47.06344" lon="6.01997">
        <ele>398</ele>
        <time>2020-02-10T11:53:59Z</time>
      </trkpt>
      <trkpt lat="47.06336" lon="6.02031">
        <ele>398</ele>
        <time>2020-02-10T11:54:03Z</time>
      </trkpt>
      <trkpt lat="47.06324" lon="6.02158">
        <ele>402</ele>
        <time>2020-02-10T11:54:18Z</time>
      </trkpt>
      <trkpt lat="47.06316" lon="6.02204">
        <ele>401</ele>
        <time>2020-02-10T11:54:24Z</time>
      </trkpt>
      <trkpt lat="47.06304" lon="6.02246">
        <ele>401</ele>
        <time>2020-02-10T11:54:30Z</time>
      </trkpt>
      <trkpt lat="47.06274" lon="6.02314">
        <ele>396</ele>
        <time>2020-02-10T11:54:40Z</time>
      </trkpt>
      <trkpt lat="47.06274" lon="6.02314">
        <ele>396</ele>
        <time>2020-02-10T11:54:40Z</time>
      </trkpt>
      <trkpt lat="47.06225" lon="6.02404">
        <ele>393</ele>
        <time>2020-02-10T11:54:54Z</time>
      </trkpt>
      <trkpt lat="47.06216" lon="6.0247">
        <ele>391</ele>
        <time>2020-02-10T11:55:02Z</time>
      </trkpt>
      <trkpt lat="47.0619" lon="6.02586">
        <ele>388</ele>
        <time>2020-02-10T11:55:17Z</time>
      </trkpt>
      <trkpt lat="47.06138" lon="6.02741">
        <ele>388</ele>
        <time>2020-02-10T11:55:37Z</time>
      </trkpt>
      <trkpt lat="47.06133" lon="6.02771">
        <ele>389</ele>
        <time>2020-02-10T11:55:41Z</time>
      </trkpt>
      <trkpt lat="47.06134" lon="6.02787">
        <ele>389</ele>
        <time>2020-02-10T11:55:43Z</time>
      </trkpt>
      <trkpt lat="47.0614" lon="6.02797">
        <ele>389</ele>
        <time>2020-02-10T11:55:45Z</time>
      </trkpt>
      <trkpt lat="47.06163" lon="6.02816">
        <ele>390</ele>
        <time>2020-02-10T11:55:49Z</time>
      </trkpt>
      <trkpt lat="47.06244" lon="6.02855">
        <ele>397</ele>
        <time>2020-02-10T11:56:05Z</time>
      </trkpt>
      <trkpt lat="47.06264" lon="6.02871">
        <ele>400</ele>
        <time>2020-02-10T11:56:09Z</time>
      </trkpt>
      <trkpt lat="47.06328" lon="6.02959">
        <ele>403</ele>
        <time>2020-02-10T11:56:24Z</time>
      </trkpt>
      <trkpt lat="47.06416" lon="6.03109">
        <ele>409</ele>
        <time>2020-02-10T11:56:48Z</time>
      </trkpt>
      <trkpt lat="47.06464" lon="6.03205">
        <ele>413</ele>
        <time>2020-02-10T11:57:03Z</time>
      </trkpt>
      <trkpt lat="47.0651" lon="6.03323">
        <ele>413</ele>
        <time>2020-02-10T11:57:19Z</time>
      </trkpt>
      <trkpt lat="47.06553" lon="6.03487">
        <ele>420</ele>
        <time>2020-02-10T11:57:40Z</time>
      </trkpt>
      <trkpt lat="47.06625" lon="6.0372">
        <ele>437</ele>
        <time>2020-02-10T11:58:11Z</time>
      </trkpt>
      <trkpt lat="47.06656" lon="6.03862">
        <ele>443</ele>
        <time>2020-02-10T11:58:30Z</time>
      </trkpt>
      <trkpt lat="47.06678" lon="6.03997">
        <ele>449</ele>
        <time>2020-02-10T11:58:46Z</time>
      </trkpt>
      <trkpt lat="47.06684" lon="6.04067">
        <ele>455</ele>
        <time>2020-02-10T11:58:55Z</time>
      </trkpt>
      <trkpt lat="47.06681" lon="6.0411">
        <ele>458</ele>
        <time>2020-02-10T11:59:00Z</time>
      </trkpt>
      <trkpt lat="47.06661" lon="6.04139">
        <ele>457</ele>
        <time>2020-02-10T11:59:05Z</time>
      </trkpt>
      <trkpt lat="47.06642" lon="6.04146">
        <ele>459</ele>
        <time>2020-02-10T11:59:09Z</time>
      </trkpt>
      <trkpt lat="47.06601" lon="6.04141">
        <ele>461</ele>
        <time>2020-02-10T11:59:16Z</time>
      </trkpt>
      <trkpt lat="47.06594" lon="6.04147">
        <ele>462</ele>
        <time>2020-02-10T11:59:17Z</time>
      </trkpt>
      <trkpt lat="47.06597" lon="6.04235">
        <ele>469</ele>
        <time>2020-02-10T11:59:28Z</time>
      </trkpt>
      <trkpt lat="47.06595" lon="6.04275">
        <ele>472</ele>
        <time>2020-02-10T11:59:33Z</time>
      </trkpt>
      <trkpt lat="47.0658" lon="6.04329">
        <ele>474</ele>
        <time>2020-02-10T11:59:40Z</time>
      </trkpt>
      <trkpt lat="47.06561" lon="6.04362">
        <ele>484</ele>
        <time>2020-02-10T11:59:45Z</time>
      </trkpt>
      <trkpt lat="47.06557" lon="6.04378">
        <ele>487</ele>
        <time>2020-02-10T11:59:47Z</time>
      </trkpt>
      <trkpt lat="47.06561" lon="6.04396">
        <ele>488</ele>
        <time>2020-02-10T11:59:50Z</time>
      </trkpt>
      <trkpt lat="47.06561" lon="6.04396">
        <ele>488</ele>
        <time>2020-02-10T11:59:50Z</time>
      </trkpt>
      <trkpt lat="47.06583" lon="6.04397">
        <ele>486</ele>
        <time>2020-02-10T11:59:54Z</time>
      </trkpt>
      <trkpt lat="47.0662" lon="6.04381">
        <ele>488</ele>
        <time>2020-02-10T12:00:00Z</time>
      </trkpt>
      <trkpt lat="47.06651" lon="6.0436">
        <ele>489</ele>
        <time>2020-02-10T12:00:06Z</time>
      </trkpt>
      <trkpt lat="47.06722" lon="6.0428">
        <ele>490</ele>
        <time>2020-02-10T12:00:22Z</time>
      </trkpt>
      <trkpt lat="47.0675" lon="6.04239">
        <ele>492</ele>
        <time>2020-02-10T12:00:29Z</time>
      </trkpt>
      <trkpt lat="47.06777" lon="6.04185">
        <ele>490</ele>
        <time>2020-02-10T12:00:38Z</time>
      </trkpt>
      <trkpt lat="47.06792" lon="6.04167">
        <ele>491</ele>
        <time>2020-02-10T12:00:41Z</time>
      </trkpt>
      <trkpt lat="47.06792" lon="6.04167">
        <ele>491</ele>
        <time>2020-02-10T12:00:41Z</time>
      </trkpt>
      <trkpt lat="47.06812" lon="6.04151">
        <ele>494</ele>
        <time>2020-02-10T12:00:45Z</time>
      </trkpt>
      <trkpt lat="47.06891" lon="6.04124">
        <ele>499</ele>
        <time>2020-02-10T12:00:59Z</time>
      </trkpt>
      <trkpt lat="47.06891" lon="6.04124">
        <ele>499</ele>
        <time>2020-02-10T12:00:59Z</time>
      </trkpt>
      <trkpt lat="47.06893" lon="6.04153">
        <ele>500</ele>
        <time>2020-02-10T12:01:03Z</time>
      </trkpt>
      <trkpt lat="47.06893" lon="6.04153">
        <ele>500</ele>
        <time>2020-02-10T12:01:03Z</time>
      </trkpt>
      <trkpt lat="47.06995" lon="6.04173">
        <ele>499</ele>
        <time>2020-02-10T12:01:21Z</time>
      </trkpt>
      <trkpt lat="47.07035" lon="6.04192">
        <ele>498</ele>
        <time>2020-02-10T12:01:29Z</time>
      </trkpt>
      <trkpt lat="47.07071" lon="6.04217">
        <ele>496</ele>
        <time>2020-02-10T12:01:36Z</time>
      </trkpt>
      <trkpt lat="47.07154" lon="6.04256">
        <ele>491</ele>
        <time>2020-02-10T12:01:51Z</time>
      </trkpt>
      <trkpt lat="47.07183" lon="6.0428">
        <ele>489</ele>
        <time>2020-02-10T12:01:57Z</time>
      </trkpt>
      <trkpt lat="47.07218" lon="6.04277">
        <ele>487</ele>
        <time>2020-02-10T12:02:04Z</time>
      </trkpt>
      <trkpt lat="47.0731" lon="6.04235">
        <ele>483</ele>
        <time>2020-02-10T12:02:21Z</time>
      </trkpt>
      <trkpt lat="47.07329" lon="6.04235">
        <ele>482</ele>
        <time>2020-02-10T12:02:24Z</time>
      </trkpt>
      <trkpt lat="47.07359" lon="6.04249">
        <ele>479</ele>
        <time>2020-02-10T12:02:30Z</time>
      </trkpt>
      <trkpt lat="47.0738" lon="6.04253">
        <ele>476</ele>
        <time>2020-02-10T12:02:33Z</time>
      </trkpt>
      <trkpt lat="47.07543" lon="6.04204">
        <ele>473</ele>
        <time>2020-02-10T12:03:03Z</time>
      </trkpt>
      <trkpt lat="47.076" lon="6.04198">
        <ele>472</ele>
        <time>2020-02-10T12:03:13Z</time>
      </trkpt>
      <trkpt lat="47.07641" lon="6.04204">
        <ele>469</ele>
        <time>2020-02-10T12:03:21Z</time>
      </trkpt>
      <trkpt lat="47.07669" lon="6.04214">
        <ele>466</ele>
        <time>2020-02-10T12:03:26Z</time>
      </trkpt>
      <trkpt lat="47.07708" lon="6.04234">
        <ele>465</ele>
        <time>2020-02-10T12:03:33Z</time>
      </trkpt>
      <trkpt lat="47.07746" lon="6.04263">
        <ele>464</ele>
        <time>2020-02-10T12:03:41Z</time>
      </trkpt>
      <trkpt lat="47.07846" lon="6.04361">
        <ele>461</ele>
        <time>2020-02-10T12:04:02Z</time>
      </trkpt>
      <trkpt lat="47.07997" lon="6.04486">
        <ele>447</ele>
        <time>2020-02-10T12:04:33Z</time>
      </trkpt>
      <trkpt lat="47.08223" lon="6.04649">
        <ele>426</ele>
        <time>2020-02-10T12:05:18Z</time>
      </trkpt>
      <trkpt lat="47.08223" lon="6.04649">
        <ele>426</ele>
        <time>2020-02-10T12:05:18Z</time>
      </trkpt>
      <trkpt lat="47.08251" lon="6.0467">
        <ele>424</ele>
        <time>2020-02-10T12:05:23Z</time>
      </trkpt>
      <trkpt lat="47.08349" lon="6.04767">
        <ele>417</ele>
        <time>2020-02-10T12:05:44Z</time>
      </trkpt>
      <trkpt lat="47.08378" lon="6.0479">
        <ele>415</ele>
        <time>2020-02-10T12:05:50Z</time>
      </trkpt>
      <trkpt lat="47.08428" lon="6.04823">
        <ele>411</ele>
        <time>2020-02-10T12:06:00Z</time>
      </trkpt>
      <trkpt lat="47.08476" lon="6.04843">
        <ele>407</ele>
        <time>2020-02-10T12:06:09Z</time>
      </trkpt>
      <trkpt lat="47.08509" lon="6.04839">
        <ele>407</ele>
        <time>2020-02-10T12:06:15Z</time>
      </trkpt>
      <trkpt lat="47.08531" lon="6.04827">
        <ele>406</ele>
        <time>2020-02-10T12:06:19Z</time>
      </trkpt>
      <trkpt lat="47.08628" lon="6.04751">
        <ele>403</ele>
        <time>2020-02-10T12:06:38Z</time>
      </trkpt>
      <trkpt lat="47.08681" lon="6.04698">
        <ele>405</ele>
        <time>2020-02-10T12:06:50Z</time>
      </trkpt>
      <trkpt lat="47.08688" lon="6.04693">
        <ele>407</ele>
        <time>2020-02-10T12:06:51Z</time>
      </trkpt>
      <trkpt lat="47.087" lon="6.04696">
        <ele>408</ele>
        <time>2020-02-10T12:06:53Z</time>
      </trkpt>
      <trkpt lat="47.08754" lon="6.04757">
        <ele>398</ele>
        <time>2020-02-10T12:07:06Z</time>
      </trkpt>
      <trkpt lat="47.08792" lon="6.04808">
        <ele>397</ele>
        <time>2020-02-10T12:07:15Z</time>
      </trkpt>
      <trkpt lat="47.08832" lon="6.04844">
        <ele>394</ele>
        <time>2020-02-10T12:07:23Z</time>
      </trkpt>
      <trkpt lat="47.08938" lon="6.04909">
        <ele>393</ele>
        <time>2020-02-10T12:07:43Z</time>
      </trkpt>
      <trkpt lat="47.09" lon="6.04956">
        <ele>390</ele>
        <time>2020-02-10T12:07:56Z</time>
      </trkpt>
      <trkpt lat="47.09057" lon="6.0501">
        <ele>385</ele>
        <time>2020-02-10T12:08:08Z</time>
      </trkpt>
      <trkpt lat="47.09105" lon="6.05067">
        <ele>380</ele>
        <time>2020-02-10T12:08:19Z</time>
      </trkpt>
      <trkpt lat="47.09132" lon="6.05109">
        <ele>377</ele>
        <time>2020-02-10T12:08:26Z</time>
      </trkpt>
      <trkpt lat="47.09173" lon="6.05191">
        <ele>366</ele>
        <time>2020-02-10T12:08:38Z</time>
      </trkpt>
      <trkpt lat="47.09205" lon="6.05231">
        <ele>363</ele>
        <time>2020-02-10T12:08:46Z</time>
      </trkpt>
      <trkpt lat="47.09228" lon="6.05251">
        <ele>360</ele>
        <time>2020-02-10T12:08:51Z</time>
      </trkpt>
      <trkpt lat="47.09296" lon="6.05289">
        <ele>360</ele>
        <time>2020-02-10T12:09:03Z</time>
      </trkpt>
      <trkpt lat="47.09334" lon="6.05336">
        <ele>357</ele>
        <time>2020-02-10T12:09:12Z</time>
      </trkpt>
      <trkpt lat="47.09342" lon="6.05357">
        <ele>356</ele>
        <time>2020-02-10T12:09:15Z</time>
      </trkpt>
      <trkpt lat="47.09344" lon="6.05385">
        <ele>355</ele>
        <time>2020-02-10T12:09:19Z</time>
      </trkpt>
      <trkpt lat="47.09339" lon="6.05424">
        <ele>353</ele>
        <time>2020-02-10T12:09:23Z</time>
      </trkpt>
      <trkpt lat="47.09334" lon="6.05436">
        <ele>353</ele>
        <time>2020-02-10T12:09:25Z</time>
      </trkpt>
      <trkpt lat="47.09204" lon="6.05497">
        <ele>342</ele>
        <time>2020-02-10T12:09:49Z</time>
      </trkpt>
      <trkpt lat="47.0909" lon="6.05495">
        <ele>340</ele>
        <time>2020-02-10T12:10:10Z</time>
      </trkpt>
      <trkpt lat="47.08991" lon="6.05507">
        <ele>326</ele>
        <time>2020-02-10T12:10:27Z</time>
      </trkpt>
      <trkpt lat="47.0888" lon="6.0545">
        <ele>328</ele>
        <time>2020-02-10T12:10:48Z</time>
      </trkpt>
      <trkpt lat="47.08848" lon="6.05448">
        <ele>326</ele>
        <time>2020-02-10T12:10:54Z</time>
      </trkpt>
      <trkpt lat="47.08832" lon="6.05454">
        <ele>323</ele>
        <time>2020-02-10T12:10:57Z</time>
      </trkpt>
      <trkpt lat="47.08818" lon="6.05468">
        <ele>322</ele>
        <time>2020-02-10T12:11:00Z</time>
      </trkpt>
      <trkpt lat="47.08801" lon="6.05497">
        <ele>316</ele>
        <time>2020-02-10T12:11:05Z</time>
      </trkpt>
      <trkpt lat="47.08744" lon="6.05608">
        <ele>314</ele>
        <time>2020-02-10T12:11:21Z</time>
      </trkpt>
      <trkpt lat="47.0873" lon="6.05649">
        <ele>314</ele>
        <time>2020-02-10T12:11:27Z</time>
      </trkpt>
      <trkpt lat="47.08727" lon="6.05686">
        <ele>315</ele>
        <time>2020-02-10T12:11:32Z</time>
      </trkpt>
      <trkpt lat="47.0873" lon="6.05827">
        <ele>320</ele>
        <time>2020-02-10T12:11:49Z</time>
      </trkpt>
      <trkpt lat="47.0873" lon="6.05827">
        <ele>320</ele>
        <time>2020-02-10T12:11:49Z</time>
      </trkpt>
      <trkpt lat="47.08734" lon="6.05897">
        <ele>320</ele>
        <time>2020-02-10T12:11:57Z</time>
      </trkpt>
      <trkpt lat="47.08734" lon="6.05897">
        <ele>320</ele>
        <time>2020-02-10T12:11:57Z</time>
      </trkpt>
      <trkpt lat="47.08744" lon="6.05961">
        <ele>321</ele>
        <time>2020-02-10T12:12:05Z</time>
      </trkpt>
      <trkpt lat="47.08769" lon="6.06031">
        <ele>321</ele>
        <time>2020-02-10T12:12:15Z</time>
      </trkpt>
      <trkpt lat="47.08769" lon="6.06031">
        <ele>321</ele>
        <time>2020-02-10T12:12:15Z</time>
      </trkpt>
      <trkpt lat="47.08818" lon="6.06137">
        <ele>319</ele>
        <time>2020-02-10T12:12:30Z</time>
      </trkpt>
      <trkpt lat="47.08831" lon="6.06179">
        <ele>319</ele>
        <time>2020-02-10T12:12:36Z</time>
      </trkpt>
      <trkpt lat="47.08832" lon="6.06214">
        <ele>317</ele>
        <time>2020-02-10T12:12:40Z</time>
      </trkpt>
      <trkpt lat="47.08826" lon="6.06263">
        <ele>317</ele>
        <time>2020-02-10T12:12:46Z</time>
      </trkpt>
      <trkpt lat="47.08803" lon="6.06336">
        <ele>318</ele>
        <time>2020-02-10T12:12:56Z</time>
      </trkpt>
      <trkpt lat="47.08803" lon="6.0637">
        <ele>318</ele>
        <time>2020-02-10T12:13:00Z</time>
      </trkpt>
      <trkpt lat="47.08819" lon="6.06754">
        <ele>327</ele>
        <time>2020-02-10T12:13:46Z</time>
      </trkpt>
      <trkpt lat="47.08822" lon="6.06791">
        <ele>331</ele>
        <time>2020-02-10T12:13:51Z</time>
      </trkpt>
      <trkpt lat="47.08841" lon="6.06875">
        <ele>339</ele>
        <time>2020-02-10T12:14:02Z</time>
      </trkpt>
      <trkpt lat="47.08871" lon="6.06934">
        <ele>338</ele>
        <time>2020-02-10T12:14:11Z</time>
      </trkpt>
      <trkpt lat="47.08895" lon="6.06964">
        <ele>335</ele>
        <time>2020-02-10T12:14:16Z</time>
      </trkpt>
      <trkpt lat="47.08923" lon="6.06991">
        <ele>332</ele>
        <time>2020-02-10T12:14:22Z</time>
      </trkpt>
      <trkpt lat="47.08943" lon="6.07001">
        <ele>330</ele>
        <time>2020-02-10T12:14:26Z</time>
      </trkpt>
      <trkpt lat="47.08966" lon="6.07004">
        <ele>326</ele>
        <time>2020-02-10T12:14:30Z</time>
      </trkpt>
      <trkpt lat="47.08991" lon="6.07">
        <ele>322</ele>
        <time>2020-02-10T12:14:35Z</time>
      </trkpt>
      <trkpt lat="47.09017" lon="6.06987">
        <ele>319</ele>
        <time>2020-02-10T12:14:39Z</time>
      </trkpt>
      <trkpt lat="47.09064" lon="6.06952">
        <ele>316</ele>
        <time>2020-02-10T12:14:49Z</time>
      </trkpt>
      <trkpt lat="47.09064" lon="6.06952">
        <ele>316</ele>
        <time>2020-02-10T12:14:49Z</time>
      </trkpt>
      <trkpt lat="47.09079" lon="6.06941">
        <ele>315</ele>
        <time>2020-02-10T12:14:52Z</time>
      </trkpt>
      <trkpt lat="47.09079" lon="6.06941">
        <ele>315</ele>
        <time>2020-02-10T12:14:52Z</time>
      </trkpt>
      <trkpt lat="47.09133" lon="6.06904">
        <ele>316</ele>
        <time>2020-02-10T12:15:02Z</time>
      </trkpt>
      <trkpt lat="47.09151" lon="6.06908">
        <ele>315</ele>
        <time>2020-02-10T12:15:06Z</time>
      </trkpt>
      <trkpt lat="47.09264" lon="6.07066">
        <ele>319</ele>
        <time>2020-02-10T12:15:33Z</time>
      </trkpt>
      <trkpt lat="47.09264" lon="6.07066">
        <ele>319</ele>
        <time>2020-02-10T12:15:33Z</time>
      </trkpt>
      <trkpt lat="47.09262" lon="6.07122">
        <ele>323</ele>
        <time>2020-02-10T12:15:40Z</time>
      </trkpt>
      <trkpt lat="47.09224" lon="6.07242">
        <ele>331</ele>
        <time>2020-02-10T12:15:56Z</time>
      </trkpt>
      <trkpt lat="47.09215" lon="6.07299">
        <ele>333</ele>
        <time>2020-02-10T12:16:03Z</time>
      </trkpt>
      <trkpt lat="47.09212" lon="6.07352">
        <ele>335</ele>
        <time>2020-02-10T12:16:10Z</time>
      </trkpt>
      <trkpt lat="47.09216" lon="6.07403">
        <ele>337</ele>
        <time>2020-02-10T12:16:16Z</time>
      </trkpt>
      <trkpt lat="47.09234" lon="6.07496">
        <ele>343</ele>
        <time>2020-02-10T12:16:28Z</time>
      </trkpt>
      <trkpt lat="47.09233" lon="6.07549">
        <ele>344</ele>
        <time>2020-02-10T12:16:34Z</time>
      </trkpt>
      <trkpt lat="47.09239" lon="6.07556">
        <ele>345</ele>
        <time>2020-02-10T12:16:35Z</time>
      </trkpt>
      <trkpt lat="47.09256" lon="6.07549">
        <ele>348</ele>
        <time>2020-02-10T12:16:39Z</time>
      </trkpt>
      <trkpt lat="47.09285" lon="6.07463">
        <ele>349</ele>
        <time>2020-02-10T12:16:50Z</time>
      </trkpt>
      <trkpt lat="47.09317" lon="6.0742">
        <ele>351</ele>
        <time>2020-02-10T12:16:58Z</time>
      </trkpt>
      <trkpt lat="47.09324" lon="6.07417">
        <ele>351</ele>
        <time>2020-02-10T12:16:59Z</time>
      </trkpt>
      <trkpt lat="47.09332" lon="6.07423">
        <ele>352</ele>
        <time>2020-02-10T12:17:01Z</time>
      </trkpt>
      <trkpt lat="47.09336" lon="6.07434">
        <ele>353</ele>
        <time>2020-02-10T12:17:02Z</time>
      </trkpt>
      <trkpt lat="47.09339" lon="6.07473">
        <ele>356</ele>
        <time>2020-02-10T12:17:07Z</time>
      </trkpt>
      <trkpt lat="47.09358" lon="6.07507">
        <ele>358</ele>
        <time>2020-02-10T12:17:12Z</time>
      </trkpt>
      <trkpt lat="47.0947" lon="6.07668">
        <ele>364</ele>
        <time>2020-02-10T12:17:40Z</time>
      </trkpt>
      <trkpt lat="47.0947" lon="6.07668">
        <ele>364</ele>
        <time>2020-02-10T12:17:40Z</time>
      </trkpt>
      <trkpt lat="47.09552" lon="6.07787">
        <ele>373</ele>
        <time>2020-02-10T12:18:01Z</time>
      </trkpt>
      <trkpt lat="47.09562" lon="6.07795">
        <ele>374</ele>
        <time>2020-02-10T12:18:03Z</time>
      </trkpt>
      <trkpt lat="47.09562" lon="6.07795">
        <ele>374</ele>
        <time>2020-02-10T12:18:03Z</time>
      </trkpt>
      <trkpt lat="47.09567" lon="6.07827">
        <ele>376</ele>
        <time>2020-02-10T12:18:07Z</time>
      </trkpt>
      <trkpt lat="47.09589" lon="6.07873">
        <ele>382</ele>
        <time>2020-02-10T12:18:14Z</time>
      </trkpt>
      <trkpt lat="47.09642" lon="6.07906">
        <ele>382</ele>
        <time>2020-02-10T12:18:24Z</time>
      </trkpt>
      <trkpt lat="47.09665" lon="6.07931">
        <ele>383</ele>
        <time>2020-02-10T12:18:29Z</time>
      </trkpt>
      <trkpt lat="47.09687" lon="6.07966">
        <ele>384</ele>
        <time>2020-02-10T12:18:35Z</time>
      </trkpt>
      <trkpt lat="47.09729" lon="6.08083">
        <ele>388</ele>
        <time>2020-02-10T12:18:51Z</time>
      </trkpt>
      <trkpt lat="47.09827" lon="6.08301">
        <ele>393</ele>
        <time>2020-02-10T12:19:22Z</time>
      </trkpt>
      <trkpt lat="47.0983" lon="6.0832">
        <ele>396</ele>
        <time>2020-02-10T12:19:25Z</time>
      </trkpt>
      <trkpt lat="47.09847" lon="6.08352">
        <ele>396</ele>
        <time>2020-02-10T12:19:30Z</time>
      </trkpt>
      <trkpt lat="47.099" lon="6.0843">
        <ele>392</ele>
        <time>2020-02-10T12:19:43Z</time>
      </trkpt>
      <trkpt lat="47.09942" lon="6.08482">
        <ele>388</ele>
        <time>2020-02-10T12:19:53Z</time>
      </trkpt>
      <trkpt lat="47.10025" lon="6.08546">
        <ele>374</ele>
        <time>2020-02-10T12:20:10Z</time>
      </trkpt>
      <trkpt lat="47.10067" lon="6.08588">
        <ele>370</ele>
        <time>2020-02-10T12:20:19Z</time>
      </trkpt>
      <trkpt lat="47.10124" lon="6.08689">
        <ele>364</ele>
        <time>2020-02-10T12:20:34Z</time>
      </trkpt>
      <trkpt lat="47.1015" lon="6.08749">
        <ele>362</ele>
        <time>2020-02-10T12:20:43Z</time>
      </trkpt>
      <trkpt lat="47.10158" lon="6.08785">
        <ele>362</ele>
        <time>2020-02-10T12:20:48Z</time>
      </trkpt>
      <trkpt lat="47.10162" lon="6.0882">
        <ele>363</ele>
        <time>2020-02-10T12:20:52Z</time>
      </trkpt>
      <trkpt lat="47.1016" lon="6.08901">
        <ele>362</ele>
        <time>2020-02-10T12:21:02Z</time>
      </trkpt>
      <trkpt lat="47.10164" lon="6.08929">
        <ele>359</ele>
        <time>2020-02-10T12:21:05Z</time>
      </trkpt>
      <trkpt lat="47.10174" lon="6.08956">
        <ele>354</ele>
        <time>2020-02-10T12:21:09Z</time>
      </trkpt>
      <trkpt lat="47.10174" lon="6.08956">
        <ele>354</ele>
        <time>2020-02-10T12:21:09Z</time>
      </trkpt>
      <trkpt lat="47.10158" lon="6.0903">
        <ele>352</ele>
        <time>2020-02-10T12:21:18Z</time>
      </trkpt>
      <trkpt lat="47.1016" lon="6.09067">
        <ele>350</ele>
        <time>2020-02-10T12:21:23Z</time>
      </trkpt>
      <trkpt lat="47.10182" lon="6.09151">
        <ele>346</ele>
        <time>2020-02-10T12:21:34Z</time>
      </trkpt>
      <trkpt lat="47.10204" lon="6.0929">
        <ele>345</ele>
        <time>2020-02-10T12:21:51Z</time>
      </trkpt>
      <trkpt lat="47.10221" lon="6.0931">
        <ele>340</ele>
        <time>2020-02-10T12:21:55Z</time>
      </trkpt>
      <trkpt lat="47.10221" lon="6.0931">
        <ele>340</ele>
        <time>2020-02-10T12:21:55Z</time>
      </trkpt>
      <trkpt lat="47.10235" lon="6.09315">
        <ele>336</ele>
        <time>2020-02-10T12:21:57Z</time>
      </trkpt>
      <trkpt lat="47.10249" lon="6.0931">
        <ele>331</ele>
        <time>2020-02-10T12:22:00Z</time>
      </trkpt>
      <trkpt lat="47.10269" lon="6.09291">
        <ele>328</ele>
        <time>2020-02-10T12:22:04Z</time>
      </trkpt>
      <trkpt lat="47.10287" lon="6.09264">
        <ele>326</ele>
        <time>2020-02-10T12:22:09Z</time>
      </trkpt>
      <trkpt lat="47.10305" lon="6.09249">
        <ele>324</ele>
        <time>2020-02-10T12:22:13Z</time>
      </trkpt>
      <trkpt lat="47.10333" lon="6.09241">
        <ele>322</ele>
        <time>2020-02-10T12:22:18Z</time>
      </trkpt>
      <trkpt lat="47.10361" lon="6.09242">
        <ele>320</ele>
        <time>2020-02-10T12:22:23Z</time>
      </trkpt>
      <trkpt lat="47.10391" lon="6.09252">
        <ele>319</ele>
        <time>2020-02-10T12:22:28Z</time>
      </trkpt>
      <trkpt lat="47.1042" lon="6.09272">
        <ele>319</ele>
        <time>2020-02-10T12:22:34Z</time>
      </trkpt>
      <trkpt lat="47.10498" lon="6.09357">
        <ele>322</ele>
        <time>2020-02-10T12:22:51Z</time>
      </trkpt>
      <trkpt lat="47.10498" lon="6.09357">
        <ele>322</ele>
        <time>2020-02-10T12:22:51Z</time>
      </trkpt>
      <trkpt lat="47.10483" lon="6.09378">
        <ele>323</ele>
        <time>2020-02-10T12:22:55Z</time>
      </trkpt>
      <trkpt lat="47.10486" lon="6.09409">
        <ele>325</ele>
        <time>2020-02-10T12:22:59Z</time>
      </trkpt>
      <trkpt lat="47.10515" lon="6.09503">
        <ele>328</ele>
        <time>2020-02-10T12:23:11Z</time>
      </trkpt>
      <trkpt lat="47.10545" lon="6.09636">
        <ele>331</ele>
        <time>2020-02-10T12:23:28Z</time>
      </trkpt>
      <trkpt lat="47.10567" lon="6.0981">
        <ele>338</ele>
        <time>2020-02-10T12:23:49Z</time>
      </trkpt>
      <trkpt lat="47.10567" lon="6.0981">
        <ele>338</ele>
        <time>2020-02-10T12:23:49Z</time>
      </trkpt>
      <trkpt lat="47.10585" lon="6.09871">
        <ele>339</ele>
        <time>2020-02-10T12:23:57Z</time>
      </trkpt>
      <trkpt lat="47.10596" lon="6.09924">
        <ele>338</ele>
        <time>2020-02-10T12:24:04Z</time>
      </trkpt>
      <trkpt lat="47.10599" lon="6.09962">
        <ele>340</ele>
        <time>2020-02-10T12:24:09Z</time>
      </trkpt>
      <trkpt lat="47.10589" lon="6.10025">
        <ele>344</ele>
        <time>2020-02-10T12:24:17Z</time>
      </trkpt>
      <trkpt lat="47.10592" lon="6.1005">
        <ele>345</ele>
        <time>2020-02-10T12:24:20Z</time>
      </trkpt>
      <trkpt lat="47.10598" lon="6.10059">
        <ele>346</ele>
        <time>2020-02-10T12:24:21Z</time>
      </trkpt>
      <trkpt lat="47.10634" lon="6.10068">
        <ele>346</ele>
        <time>2020-02-10T12:24:28Z</time>
      </trkpt>
      <trkpt lat="47.10655" lon="6.10083">
        <ele>346</ele>
        <time>2020-02-10T12:24:32Z</time>
      </trkpt>
      <trkpt lat="47.10734" lon="6.10146">
        <ele>349</ele>
        <time>2020-02-10T12:24:48Z</time>
      </trkpt>
      <trkpt lat="47.10761" lon="6.10179">
        <ele>348</ele>
        <time>2020-02-10T12:24:54Z</time>
      </trkpt>
      <trkpt lat="47.10786" lon="6.10223">
        <ele>347</ele>
        <time>2020-02-10T12:25:01Z</time>
      </trkpt>
      <trkpt lat="47.10849" lon="6.10315">
        <ele>344</ele>
        <time>2020-02-10T12:25:17Z</time>
      </trkpt>
      <trkpt lat="47.10896" lon="6.10415">
        <ele>344</ele>
        <time>2020-02-10T12:25:32Z</time>
      </trkpt>
      <trkpt lat="47.1092" lon="6.10493">
        <ele>344</ele>
        <time>2020-02-10T12:25:42Z</time>
      </trkpt>
      <trkpt lat="47.10935" lon="6.10569">
        <ele>348</ele>
        <time>2020-02-10T12:25:52Z</time>
      </trkpt>
      <trkpt lat="47.10954" lon="6.10729">
        <ele>347</ele>
        <time>2020-02-10T12:26:11Z</time>
      </trkpt>
      <trkpt lat="47.10957" lon="6.10825">
        <ele>349</ele>
        <time>2020-02-10T12:26:23Z</time>
      </trkpt>
      <trkpt lat="47.10942" lon="6.11024">
        <ele>360</ele>
        <time>2020-02-10T12:26:47Z</time>
      </trkpt>
      <trkpt lat="47.10915" lon="6.11243">
        <ele>360</ele>
        <time>2020-02-10T12:27:14Z</time>
      </trkpt>
      <trkpt lat="47.10915" lon="6.11284">
        <ele>360</ele>
        <time>2020-02-10T12:27:19Z</time>
      </trkpt>
      <trkpt lat="47.10921" lon="6.11308">
        <ele>358</ele>
        <time>2020-02-10T12:27:22Z</time>
      </trkpt>
      <trkpt lat="47.10917" lon="6.11439">
        <ele>353</ele>
        <time>2020-02-10T12:27:38Z</time>
      </trkpt>
      <trkpt lat="47.10886" lon="6.11683">
        <ele>347</ele>
        <time>2020-02-10T12:28:08Z</time>
      </trkpt>
      <trkpt lat="47.10886" lon="6.11683">
        <ele>347</ele>
        <time>2020-02-10T12:28:08Z</time>
      </trkpt>
      <trkpt lat="47.10881" lon="6.11746">
        <ele>347</ele>
        <time>2020-02-10T12:28:16Z</time>
      </trkpt>
      <trkpt lat="47.10869" lon="6.11781">
        <ele>346</ele>
        <time>2020-02-10T12:28:20Z</time>
      </trkpt>
      <trkpt lat="47.10828" lon="6.11862">
        <ele>344</ele>
        <time>2020-02-10T12:28:33Z</time>
      </trkpt>
      <trkpt lat="47.10809" lon="6.11931">
        <ele>344</ele>
        <time>2020-02-10T12:28:42Z</time>
      </trkpt>
      <trkpt lat="47.10798" lon="6.11945">
        <ele>344</ele>
        <time>2020-02-10T12:28:44Z</time>
      </trkpt>
      <trkpt lat="47.10751" lon="6.12043">
        <ele>342</ele>
        <time>2020-02-10T12:28:59Z</time>
      </trkpt>
      <trkpt lat="47.10733" lon="6.1207">
        <ele>342</ele>
        <time>2020-02-10T12:29:03Z</time>
      </trkpt>
      <trkpt lat="47.10669" lon="6.12151">
        <ele>342</ele>
        <time>2020-02-10T12:29:18Z</time>
      </trkpt>
      <trkpt lat="47.10537" lon="6.12215">
        <ele>348</ele>
        <time>2020-02-10T12:29:43Z</time>
      </trkpt>
      <trkpt lat="47.10457" lon="6.12282">
        <ele>348</ele>
        <time>2020-02-10T12:30:00Z</time>
      </trkpt>
      <trkpt lat="47.10457" lon="6.12282">
        <ele>348</ele>
        <time>2020-02-10T12:30:00Z</time>
      </trkpt>
      <trkpt lat="47.10372" lon="6.1235">
        <ele>347</ele>
        <time>2020-02-10T12:30:17Z</time>
      </trkpt>
      <trkpt lat="47.10345" lon="6.12399">
        <ele>343</ele>
        <time>2020-02-10T12:30:24Z</time>
      </trkpt>
      <trkpt lat="47.10319" lon="6.12431">
        <ele>341</ele>
        <time>2020-02-10T12:30:30Z</time>
      </trkpt>
      <trkpt lat="47.10235" lon="6.12517">
        <ele>345</ele>
        <time>2020-02-10T12:30:49Z</time>
      </trkpt>
      <trkpt lat="47.1017" lon="6.12595">
        <ele>344</ele>
        <time>2020-02-10T12:31:04Z</time>
      </trkpt>
      <trkpt lat="47.1017" lon="6.12595">
        <ele>344</ele>
        <time>2020-02-10T12:31:04Z</time>
      </trkpt>
      <trkpt lat="47.10107" lon="6.12677">
        <ele>345</ele>
        <time>2020-02-10T12:31:19Z</time>
      </trkpt>
      <trkpt lat="47.10077" lon="6.12807">
        <ele>345</ele>
        <time>2020-02-10T12:31:35Z</time>
      </trkpt>
      <trkpt lat="47.10082" lon="6.12834">
        <ele>344</ele>
        <time>2020-02-10T12:31:39Z</time>
      </trkpt>
      <trkpt lat="47.10117" lon="6.12918">
        <ele>343</ele>
        <time>2020-02-10T12:31:51Z</time>
      </trkpt>
      <trkpt lat="47.1012" lon="6.12934">
        <ele>342</ele>
        <time>2020-02-10T12:31:53Z</time>
      </trkpt>
      <trkpt lat="47.1014" lon="6.13178">
        <ele>338</ele>
        <time>2020-02-10T12:32:22Z</time>
      </trkpt>
      <trkpt lat="47.10154" lon="6.13251">
        <ele>340</ele>
        <time>2020-02-10T12:32:32Z</time>
      </trkpt>
      <trkpt lat="47.10154" lon="6.13251">
        <ele>340</ele>
        <time>2020-02-10T12:32:32Z</time>
      </trkpt>
      <trkpt lat="47.10165" lon="6.13285">
        <ele>340</ele>
        <time>2020-02-10T12:32:36Z</time>
      </trkpt>
      <trkpt lat="47.10196" lon="6.13346">
        <ele>338</ele>
        <time>2020-02-10T12:32:45Z</time>
      </trkpt>
      <trkpt lat="47.10276" lon="6.13455">
        <ele>334</ele>
        <time>2020-02-10T12:33:05Z</time>
      </trkpt>
      <trkpt lat="47.10395" lon="6.13635">
        <ele>332</ele>
        <time>2020-02-10T12:33:35Z</time>
      </trkpt>
      <trkpt lat="47.10442" lon="6.13734">
        <ele>330</ele>
        <time>2020-02-10T12:33:50Z</time>
      </trkpt>
      <trkpt lat="47.10436" lon="6.13768">
        <ele>331</ele>
        <time>2020-02-10T12:33:54Z</time>
      </trkpt>
      <trkpt lat="47.10436" lon="6.13768">
        <ele>331</ele>
        <time>2020-02-10T12:33:54Z</time>
      </trkpt>
      <trkpt lat="47.10448" lon="6.13803">
        <ele>332</ele>
        <time>2020-02-10T12:33:59Z</time>
      </trkpt>
      <trkpt lat="47.10442" lon="6.13905">
        <ele>335</ele>
        <time>2020-02-10T12:34:11Z</time>
      </trkpt>
      <trkpt lat="47.10446" lon="6.13988">
        <ele>336</ele>
        <time>2020-02-10T12:34:21Z</time>
      </trkpt>
      <trkpt lat="47.10492" lon="6.1413">
        <ele>333</ele>
        <time>2020-02-10T12:34:40Z</time>
      </trkpt>
      <trkpt lat="47.10492" lon="6.1413">
        <ele>333</ele>
        <time>2020-02-10T12:34:40Z</time>
      </trkpt>
      <trkpt lat="47.10542" lon="6.14105">
        <ele>332</ele>
        <time>2020-02-10T12:34:50Z</time>
      </trkpt>
      <trkpt lat="47.10542" lon="6.14105">
        <ele>332</ele>
        <time>2020-02-10T12:34:50Z</time>
      </trkpt>
      <trkpt lat="47.10573" lon="6.1409">
        <ele>333</ele>
        <time>2020-02-10T12:34:55Z</time>
      </trkpt>
      <trkpt lat="47.10672" lon="6.14085">
        <ele>336</ele>
        <time>2020-02-10T12:35:13Z</time>
      </trkpt>
      <trkpt lat="47.10672" lon="6.14085">
        <ele>336</ele>
        <time>2020-02-10T12:35:13Z</time>
      </trkpt>
      <trkpt lat="47.10687" lon="6.14212">
        <ele>334</ele>
        <time>2020-02-10T12:35:29Z</time>
      </trkpt>
      <trkpt lat="47.10678" lon="6.14353">
        <ele>332</ele>
        <time>2020-02-10T12:35:46Z</time>
      </trkpt>
      <trkpt lat="47.107" lon="6.14435">
        <ele>332</ele>
        <time>2020-02-10T12:35:56Z</time>
      </trkpt>
      <trkpt lat="47.10706" lon="6.1449">
        <ele>332</ele>
        <time>2020-02-10T12:36:03Z</time>
      </trkpt>
      <trkpt lat="47.10692" lon="6.1456">
        <ele>330</ele>
        <time>2020-02-10T12:36:12Z</time>
      </trkpt>
      <trkpt lat="47.10649" lon="6.14666">
        <ele>328</ele>
        <time>2020-02-10T12:36:27Z</time>
      </trkpt>
      <trkpt lat="47.10649" lon="6.14666">
        <ele>328</ele>
        <time>2020-02-10T12:36:27Z</time>
      </trkpt>
      <trkpt lat="47.10552" lon="6.14844">
        <ele>333</ele>
        <time>2020-02-10T12:36:55Z</time>
      </trkpt>
      <trkpt lat="47.10477" lon="6.14943">
        <ele>332</ele>
        <time>2020-02-10T12:37:13Z</time>
      </trkpt>
      <trkpt lat="47.10453" lon="6.14993">
        <ele>332</ele>
        <time>2020-02-10T12:37:20Z</time>
      </trkpt>
      <trkpt lat="47.10429" lon="6.1508">
        <ele>332</ele>
        <time>2020-02-10T12:37:31Z</time>
      </trkpt>
      <trkpt lat="47.10405" lon="6.15141">
        <ele>333</ele>
        <time>2020-02-10T12:37:40Z</time>
      </trkpt>
      <trkpt lat="47.10342" lon="6.15255">
        <ele>333</ele>
        <time>2020-02-10T12:37:58Z</time>
      </trkpt>
      <trkpt lat="47.10317" lon="6.15291">
        <ele>333</ele>
        <time>2020-02-10T12:38:04Z</time>
      </trkpt>
      <trkpt lat="47.10301" lon="6.15326">
        <ele>333</ele>
        <time>2020-02-10T12:38:09Z</time>
      </trkpt>
      <trkpt lat="47.10264" lon="6.15428">
        <ele>335</ele>
        <time>2020-02-10T12:38:23Z</time>
      </trkpt>
      <trkpt lat="47.10256" lon="6.15482">
        <ele>337</ele>
        <time>2020-02-10T12:38:30Z</time>
      </trkpt>
      <trkpt lat="47.10253" lon="6.15523">
        <ele>336</ele>
        <time>2020-02-10T12:38:35Z</time>
      </trkpt>
      <trkpt lat="47.10256" lon="6.15546">
        <ele>336</ele>
        <time>2020-02-10T12:38:38Z</time>
      </trkpt>
      <trkpt lat="47.10266" lon="6.15579">
        <ele>335</ele>
        <time>2020-02-10T12:38:42Z</time>
      </trkpt>
      <trkpt lat="47.10334" lon="6.15666">
        <ele>335</ele>
        <time>2020-02-10T12:38:58Z</time>
      </trkpt>
      <trkpt lat="47.1047" lon="6.15788">
        <ele>333</ele>
        <time>2020-02-10T12:39:26Z</time>
      </trkpt>
      <trkpt lat="47.10479" lon="6.15801">
        <ele>333</ele>
        <time>2020-02-10T12:39:29Z</time>
      </trkpt>
      <trkpt lat="47.10498" lon="6.15862">
        <ele>333</ele>
        <time>2020-02-10T12:39:37Z</time>
      </trkpt>
      <trkpt lat="47.10498" lon="6.15862">
        <ele>333</ele>
        <time>2020-02-10T12:39:37Z</time>
      </trkpt>
      <trkpt lat="47.10502" lon="6.15904">
        <ele>333</ele>
        <time>2020-02-10T12:39:42Z</time>
      </trkpt>
      <trkpt lat="47.10498" lon="6.15951">
        <ele>335</ele>
        <time>2020-02-10T12:39:48Z</time>
      </trkpt>
      <trkpt lat="47.10418" lon="6.16321">
        <ele>335</ele>
        <time>2020-02-10T12:40:35Z</time>
      </trkpt>
      <trkpt lat="47.10393" lon="6.16382">
        <ele>338</ele>
        <time>2020-02-10T12:40:43Z</time>
      </trkpt>
      <trkpt lat="47.1038" lon="6.16404">
        <ele>339</ele>
        <time>2020-02-10T12:40:47Z</time>
      </trkpt>
      <trkpt lat="47.10336" lon="6.16454">
        <ele>339</ele>
        <time>2020-02-10T12:40:57Z</time>
      </trkpt>
      <trkpt lat="47.10184" lon="6.16532">
        <ele>335</ele>
        <time>2020-02-10T12:41:25Z</time>
      </trkpt>
      <trkpt lat="47.10053" lon="6.16625">
        <ele>337</ele>
        <time>2020-02-10T12:41:51Z</time>
      </trkpt>
      <trkpt lat="47.09871" lon="6.16793">
        <ele>338</ele>
        <time>2020-02-10T12:42:29Z</time>
      </trkpt>
      <trkpt lat="47.09833" lon="6.16846">
        <ele>337</ele>
        <time>2020-02-10T12:42:39Z</time>
      </trkpt>
      <trkpt lat="47.09805" lon="6.16894">
        <ele>339</ele>
        <time>2020-02-10T12:42:46Z</time>
      </trkpt>
      <trkpt lat="47.09751" lon="6.17027">
        <ele>339</ele>
        <time>2020-02-10T12:43:05Z</time>
      </trkpt>
      <trkpt lat="47.09686" lon="6.17222">
        <ele>343</ele>
        <time>2020-02-10T12:43:31Z</time>
      </trkpt>
      <trkpt lat="47.09668" lon="6.17299">
        <ele>341</ele>
        <time>2020-02-10T12:43:41Z</time>
      </trkpt>
      <trkpt lat="47.09647" lon="6.17424">
        <ele>343</ele>
        <time>2020-02-10T12:43:57Z</time>
      </trkpt>
      <trkpt lat="47.09616" lon="6.17542">
        <ele>338</ele>
        <time>2020-02-10T12:44:12Z</time>
      </trkpt>
      <trkpt lat="47.09587" lon="6.17619">
        <ele>334</ele>
        <time>2020-02-10T12:44:23Z</time>
      </trkpt>
      <trkpt lat="47.09561" lon="6.17672">
        <ele>334</ele>
        <time>2020-02-10T12:44:31Z</time>
      </trkpt>
      <trkpt lat="47.09371" lon="6.17926">
        <ele>332</ele>
        <time>2020-02-10T12:45:16Z</time>
      </trkpt>
      <trkpt lat="47.09016" lon="6.18383">
        <ele>336</ele>
        <time>2020-02-10T12:46:40Z</time>
      </trkpt>
      <trkpt lat="47.09016" lon="6.18383">
        <ele>336</ele>
        <time>2020-02-10T12:46:40Z</time>
      </trkpt>
      <trkpt lat="47.08871" lon="6.1857">
        <ele>339</ele>
        <time>2020-02-10T12:47:15Z</time>
      </trkpt>
      <trkpt lat="47.08773" lon="6.18687">
        <ele>342</ele>
        <time>2020-02-10T12:47:37Z</time>
      </trkpt>
      <trkpt lat="47.0873" lon="6.18724">
        <ele>345</ele>
        <time>2020-02-10T12:47:46Z</time>
      </trkpt>
      <trkpt lat="47.08621" lon="6.18773">
        <ele>344</ele>
        <time>2020-02-10T12:48:06Z</time>
      </trkpt>
      <trkpt lat="47.08621" lon="6.18773">
        <ele>344</ele>
        <time>2020-02-10T12:48:06Z</time>
      </trkpt>
      <trkpt lat="47.08582" lon="6.18817">
        <ele>344</ele>
        <time>2020-02-10T12:48:15Z</time>
      </trkpt>
      <trkpt lat="47.08505" lon="6.18873">
        <ele>344</ele>
        <time>2020-02-10T12:48:30Z</time>
      </trkpt>
      <trkpt lat="47.08386" lon="6.19027">
        <ele>344</ele>
        <time>2020-02-10T12:48:59Z</time>
      </trkpt>
      <trkpt lat="47.08386" lon="6.19027">
        <ele>344</ele>
        <time>2020-02-10T12:48:59Z</time>
      </trkpt>
      <trkpt lat="47.08419" lon="6.19012">
        <ele>344</ele>
        <time>2020-02-10T12:49:05Z</time>
      </trkpt>
      <trkpt lat="47.08478" lon="6.18959">
        <ele>350</ele>
        <time>2020-02-10T12:49:17Z</time>
      </trkpt>
      <trkpt lat="47.0856" lon="6.18916">
        <ele>358</ele>
        <time>2020-02-10T12:49:33Z</time>
      </trkpt>
      <trkpt lat="47.08627" lon="6.18853">
        <ele>359</ele>
        <time>2020-02-10T12:49:47Z</time>
      </trkpt>
      <trkpt lat="47.08717" lon="6.18806">
        <ele>362</ele>
        <time>2020-02-10T12:50:04Z</time>
      </trkpt>
      <trkpt lat="47.08803" lon="6.18797">
        <ele>364</ele>
        <time>2020-02-10T12:50:19Z</time>
      </trkpt>
      <trkpt lat="47.08826" lon="6.18806">
        <ele>366</ele>
        <time>2020-02-10T12:50:23Z</time>
      </trkpt>
      <trkpt lat="47.08849" lon="6.18822">
        <ele>369</ele>
        <time>2020-02-10T12:50:28Z</time>
      </trkpt>
      <trkpt lat="47.08849" lon="6.18822">
        <ele>369</ele>
        <time>2020-02-10T12:50:28Z</time>
      </trkpt>
      <trkpt lat="47.0888" lon="6.1886">
        <ele>372</ele>
        <time>2020-02-10T12:50:35Z</time>
      </trkpt>
      <trkpt lat="47.08946" lon="6.18987">
        <ele>379</ele>
        <time>2020-02-10T12:50:54Z</time>
      </trkpt>
      <trkpt lat="47.08967" lon="6.19085">
        <ele>391</ele>
        <time>2020-02-10T12:51:07Z</time>
      </trkpt>
      <trkpt lat="47.0898" lon="6.19121">
        <ele>393</ele>
        <time>2020-02-10T12:51:12Z</time>
      </trkpt>
      <trkpt lat="47.09021" lon="6.19209">
        <ele>393</ele>
        <time>2020-02-10T12:51:25Z</time>
      </trkpt>
      <trkpt lat="47.09053" lon="6.19323">
        <ele>397</ele>
        <time>2020-02-10T12:51:40Z</time>
      </trkpt>
      <trkpt lat="47.09066" lon="6.19383">
        <ele>400</ele>
        <time>2020-02-10T12:51:47Z</time>
      </trkpt>
      <trkpt lat="47.09073" lon="6.1947">
        <ele>406</ele>
        <time>2020-02-10T12:51:58Z</time>
      </trkpt>
      <trkpt lat="47.09064" lon="6.19522">
        <ele>414</ele>
        <time>2020-02-10T12:52:04Z</time>
      </trkpt>
      <trkpt lat="47.09041" lon="6.19568">
        <ele>425</ele>
        <time>2020-02-10T12:52:11Z</time>
      </trkpt>
      <trkpt lat="47.09038" lon="6.196">
        <ele>428</ele>
        <time>2020-02-10T12:52:15Z</time>
      </trkpt>
      <trkpt lat="47.09047" lon="6.19621">
        <ele>427</ele>
        <time>2020-02-10T12:52:18Z</time>
      </trkpt>
      <trkpt lat="47.09089" lon="6.19648">
        <ele>421</ele>
        <time>2020-02-10T12:52:26Z</time>
      </trkpt>
      <trkpt lat="47.09099" lon="6.19666">
        <ele>421</ele>
        <time>2020-02-10T12:52:29Z</time>
      </trkpt>
      <trkpt lat="47.09124" lon="6.19743">
        <ele>427</ele>
        <time>2020-02-10T12:52:40Z</time>
      </trkpt>
      <trkpt lat="47.09127" lon="6.19781">
        <ele>432</ele>
        <time>2020-02-10T12:52:44Z</time>
      </trkpt>
      <trkpt lat="47.09106" lon="6.19883">
        <ele>451</ele>
        <time>2020-02-10T12:52:57Z</time>
      </trkpt>
      <trkpt lat="47.09097" lon="6.19891">
        <ele>453</ele>
        <time>2020-02-10T12:52:59Z</time>
      </trkpt>
      <trkpt lat="47.09088" lon="6.19883">
        <ele>455</ele>
        <time>2020-02-10T12:53:01Z</time>
      </trkpt>
      <trkpt lat="47.09095" lon="6.19841">
        <ele>451</ele>
        <time>2020-02-10T12:53:06Z</time>
      </trkpt>
      <trkpt lat="47.09096" lon="6.19785">
        <ele>442</ele>
        <time>2020-02-10T12:53:13Z</time>
      </trkpt>
      <trkpt lat="47.09086" lon="6.19765">
        <ele>442</ele>
        <time>2020-02-10T12:53:16Z</time>
      </trkpt>
      <trkpt lat="47.09072" lon="6.19749">
        <ele>442</ele>
        <time>2020-02-10T12:53:19Z</time>
      </trkpt>
      <trkpt lat="47.09029" lon="6.19719">
        <ele>445</ele>
        <time>2020-02-10T12:53:27Z</time>
      </trkpt>
      <trkpt lat="47.08969" lon="6.19719">
        <ele>460</ele>
        <time>2020-02-10T12:53:38Z</time>
      </trkpt>
      <trkpt lat="47.0896" lon="6.1971">
        <ele>461</ele>
        <time>2020-02-10T12:53:40Z</time>
      </trkpt>
      <trkpt lat="47.08955" lon="6.19694">
        <ele>461</ele>
        <time>2020-02-10T12:53:42Z</time>
      </trkpt>
      <trkpt lat="47.08953" lon="6.19609">
        <ele>459</ele>
        <time>2020-02-10T12:53:53Z</time>
      </trkpt>
      <trkpt lat="47.08957" lon="6.19589">
        <ele>457</ele>
        <time>2020-02-10T12:53:55Z</time>
      </trkpt>
      <trkpt lat="47.08975" lon="6.19542">
        <ele>449</ele>
        <time>2020-02-10T12:54:02Z</time>
      </trkpt>
      <trkpt lat="47.08975" lon="6.19525">
        <ele>449</ele>
        <time>2020-02-10T12:54:04Z</time>
      </trkpt>
      <trkpt lat="47.08968" lon="6.19498">
        <ele>452</ele>
        <time>2020-02-10T12:54:07Z</time>
      </trkpt>
      <trkpt lat="47.08956" lon="6.19403">
        <ele>450</ele>
        <time>2020-02-10T12:54:19Z</time>
      </trkpt>
      <trkpt lat="47.08932" lon="6.19333">
        <ele>454</ele>
        <time>2020-02-10T12:54:28Z</time>
      </trkpt>
      <trkpt lat="47.0892" lon="6.19309">
        <ele>457</ele>
        <time>2020-02-10T12:54:32Z</time>
      </trkpt>
      <trkpt lat="47.08892" lon="6.1928">
        <ele>460</ele>
        <time>2020-02-10T12:54:38Z</time>
      </trkpt>
      <trkpt lat="47.08874" lon="6.19274">
        <ele>464</ele>
        <time>2020-02-10T12:54:41Z</time>
      </trkpt>
      <trkpt lat="47.08758" lon="6.19277">
        <ele>479</ele>
        <time>2020-02-10T12:55:02Z</time>
      </trkpt>
      <trkpt lat="47.08717" lon="6.19295">
        <ele>481</ele>
        <time>2020-02-10T12:55:10Z</time>
      </trkpt>
      <trkpt lat="47.08701" lon="6.19313">
        <ele>483</ele>
        <time>2020-02-10T12:55:13Z</time>
      </trkpt>
      <trkpt lat="47.0869" lon="6.19333">
        <ele>485</ele>
        <time>2020-02-10T12:55:16Z</time>
      </trkpt>
      <trkpt lat="47.08656" lon="6.19509">
        <ele>495</ele>
        <time>2020-02-10T12:55:38Z</time>
      </trkpt>
      <trkpt lat="47.08615" lon="6.19617">
        <ele>498</ele>
        <time>2020-02-10T12:55:53Z</time>
      </trkpt>
      <trkpt lat="47.086" lon="6.19666">
        <ele>501</ele>
        <time>2020-02-10T12:56:00Z</time>
      </trkpt>
      <trkpt lat="47.0859" lon="6.19731">
        <ele>504</ele>
        <time>2020-02-10T12:56:08Z</time>
      </trkpt>
      <trkpt lat="47.08586" lon="6.19842">
        <ele>514</ele>
        <time>2020-02-10T12:56:21Z</time>
      </trkpt>
      <trkpt lat="47.08564" lon="6.19878">
        <ele>515</ele>
        <time>2020-02-10T12:56:27Z</time>
      </trkpt>
      <trkpt lat="47.08501" lon="6.19934">
        <ele>517</ele>
        <time>2020-02-10T12:56:40Z</time>
      </trkpt>
      <trkpt lat="47.08444" lon="6.20008">
        <ele>519</ele>
        <time>2020-02-10T12:56:54Z</time>
      </trkpt>
      <trkpt lat="47.08428" lon="6.20044">
        <ele>517</ele>
        <time>2020-02-10T12:56:59Z</time>
      </trkpt>
      <trkpt lat="47.08426" lon="6.2008">
        <ele>518</ele>
        <time>2020-02-10T12:57:04Z</time>
      </trkpt>
      <trkpt lat="47.08438" lon="6.201">
        <ele>517</ele>
        <time>2020-02-10T12:57:07Z</time>
      </trkpt>
      <trkpt lat="47.08451" lon="6.20104">
        <ele>518</ele>
        <time>2020-02-10T12:57:09Z</time>
      </trkpt>
      <trkpt lat="47.08466" lon="6.20101">
        <ele>522</ele>
        <time>2020-02-10T12:57:12Z</time>
      </trkpt>
      <trkpt lat="47.08492" lon="6.20074">
        <ele>530</ele>
        <time>2020-02-10T12:57:18Z</time>
      </trkpt>
      <trkpt lat="47.08522" lon="6.20022">
        <ele>532</ele>
        <time>2020-02-10T12:57:26Z</time>
      </trkpt>
      <trkpt lat="47.08576" lon="6.20023">
        <ele>536</ele>
        <time>2020-02-10T12:57:35Z</time>
      </trkpt>
      <trkpt lat="47.08592" lon="6.20015">
        <ele>537</ele>
        <time>2020-02-10T12:57:38Z</time>
      </trkpt>
      <trkpt lat="47.08666" lon="6.19954">
        <ele>540</ele>
        <time>2020-02-10T12:57:53Z</time>
      </trkpt>
      <trkpt lat="47.0869" lon="6.19955">
        <ele>542</ele>
        <time>2020-02-10T12:57:58Z</time>
      </trkpt>
      <trkpt lat="47.08698" lon="6.1996">
        <ele>542</ele>
        <time>2020-02-10T12:57:59Z</time>
      </trkpt>
      <trkpt lat="47.08707" lon="6.1997">
        <ele>544</ele>
        <time>2020-02-10T12:58:01Z</time>
      </trkpt>
      <trkpt lat="47.08728" lon="6.20011">
        <ele>546</ele>
        <time>2020-02-10T12:58:08Z</time>
      </trkpt>
      <trkpt lat="47.08786" lon="6.20183">
        <ele>551</ele>
        <time>2020-02-10T12:58:31Z</time>
      </trkpt>
      <trkpt lat="47.08805" lon="6.20206">
        <ele>553</ele>
        <time>2020-02-10T12:58:35Z</time>
      </trkpt>
      <trkpt lat="47.08882" lon="6.20262">
        <ele>560</ele>
        <time>2020-02-10T12:58:50Z</time>
      </trkpt>
      <trkpt lat="47.08916" lon="6.20308">
        <ele>564</ele>
        <time>2020-02-10T12:58:59Z</time>
      </trkpt>
      <trkpt lat="47.08931" lon="6.20335">
        <ele>564</ele>
        <time>2020-02-10T12:59:03Z</time>
      </trkpt>
      <trkpt lat="47.08983" lon="6.20478">
        <ele>576</ele>
        <time>2020-02-10T12:59:23Z</time>
      </trkpt>
      <trkpt lat="47.09037" lon="6.20569">
        <ele>585</ele>
        <time>2020-02-10T12:59:37Z</time>
      </trkpt>
      <trkpt lat="47.09071" lon="6.20609">
        <ele>588</ele>
        <time>2020-02-10T12:59:45Z</time>
      </trkpt>
      <trkpt lat="47.09093" lon="6.20623">
        <ele>588</ele>
        <time>2020-02-10T12:59:49Z</time>
      </trkpt>
      <trkpt lat="47.09172" lon="6.20651">
        <ele>589</ele>
        <time>2020-02-10T13:00:04Z</time>
      </trkpt>
      <trkpt lat="47.09207" lon="6.20674">
        <ele>591</ele>
        <time>2020-02-10T13:00:10Z</time>
      </trkpt>
      <trkpt lat="47.09355" lon="6.20844">
        <ele>598</ele>
        <time>2020-02-10T13:00:44Z</time>
      </trkpt>
      <trkpt lat="47.09384" lon="6.20872">
        <ele>599</ele>
        <time>2020-02-10T13:00:50Z</time>
      </trkpt>
      <trkpt lat="47.09384" lon="6.20872">
        <ele>599</ele>
        <time>2020-02-10T13:00:50Z</time>
      </trkpt>
      <trkpt lat="47.09428" lon="6.20918">
        <ele>601</ele>
        <time>2020-02-10T13:01:00Z</time>
      </trkpt>
      <trkpt lat="47.09483" lon="6.21036">
        <ele>596</ele>
        <time>2020-02-10T13:01:17Z</time>
      </trkpt>
      <trkpt lat="47.0952" lon="6.2109">
        <ele>597</ele>
        <time>2020-02-10T13:01:26Z</time>
      </trkpt>
      <trkpt lat="47.09553" lon="6.21104">
        <ele>598</ele>
        <time>2020-02-10T13:01:32Z</time>
      </trkpt>
      <trkpt lat="47.09575" lon="6.21105">
        <ele>600</ele>
        <time>2020-02-10T13:01:36Z</time>
      </trkpt>
      <trkpt lat="47.09614" lon="6.21122">
        <ele>602</ele>
        <time>2020-02-10T13:01:44Z</time>
      </trkpt>
      <trkpt lat="47.09678" lon="6.21175">
        <ele>605</ele>
        <time>2020-02-10T13:01:57Z</time>
      </trkpt>
      <trkpt lat="47.09718" lon="6.21256">
        <ele>604</ele>
        <time>2020-02-10T13:02:09Z</time>
      </trkpt>
      <trkpt lat="47.09767" lon="6.21385">
        <ele>604</ele>
        <time>2020-02-10T13:02:27Z</time>
      </trkpt>
      <trkpt lat="47.09843" lon="6.21479">
        <ele>600</ele>
        <time>2020-02-10T13:02:44Z</time>
      </trkpt>
      <trkpt lat="47.09859" lon="6.21493">
        <ele>600</ele>
        <time>2020-02-10T13:02:48Z</time>
      </trkpt>
      <trkpt lat="47.09911" lon="6.21513">
        <ele>601</ele>
        <time>2020-02-10T13:02:57Z</time>
      </trkpt>
      <trkpt lat="47.10063" lon="6.21646">
        <ele>602</ele>
        <time>2020-02-10T13:03:29Z</time>
      </trkpt>
      <trkpt lat="47.1019" lon="6.21749">
        <ele>598</ele>
        <time>2020-02-10T13:03:54Z</time>
      </trkpt>
      <trkpt lat="47.1034" lon="6.21849">
        <ele>595</ele>
        <time>2020-02-10T13:04:24Z</time>
      </trkpt>
      <trkpt lat="47.10384" lon="6.21893">
        <ele>597</ele>
        <time>2020-02-10T13:04:33Z</time>
      </trkpt>
      <trkpt lat="47.1043" lon="6.21927">
        <ele>597</ele>
        <time>2020-02-10T13:04:42Z</time>
      </trkpt>
      <trkpt lat="47.10466" lon="6.21978">
        <ele>595</ele>
        <time>2020-02-10T13:04:51Z</time>
      </trkpt>
      <trkpt lat="47.10499" lon="6.22051">
        <ele>589</ele>
        <time>2020-02-10T13:05:02Z</time>
      </trkpt>
      <trkpt lat="47.10565" lon="6.22144">
        <ele>588</ele>
        <time>2020-02-10T13:05:18Z</time>
      </trkpt>
      <trkpt lat="47.10588" lon="6.22167">
        <ele>588</ele>
        <time>2020-02-10T13:05:23Z</time>
      </trkpt>
      <trkpt lat="47.10635" lon="6.222">
        <ele>589</ele>
        <time>2020-02-10T13:05:32Z</time>
      </trkpt>
      <trkpt lat="47.10681" lon="6.22245">
        <ele>591</ele>
        <time>2020-02-10T13:05:42Z</time>
      </trkpt>
      <trkpt lat="47.10751" lon="6.22285">
        <ele>593</ele>
        <time>2020-02-10T13:05:56Z</time>
      </trkpt>
      <trkpt lat="47.10766" lon="6.22301">
        <ele>593</ele>
        <time>2020-02-10T13:05:59Z</time>
      </trkpt>
      <trkpt lat="47.1078" lon="6.22318">
        <ele>594</ele>
        <time>2020-02-10T13:06:02Z</time>
      </trkpt>
      <trkpt lat="47.10838" lon="6.22425">
        <ele>595</ele>
        <time>2020-02-10T13:06:19Z</time>
      </trkpt>
      <trkpt lat="47.10871" lon="6.22477">
        <ele>595</ele>
        <time>2020-02-10T13:06:27Z</time>
      </trkpt>
      <trkpt lat="47.10882" lon="6.22502">
        <ele>595</ele>
        <time>2020-02-10T13:06:31Z</time>
      </trkpt>
      <trkpt lat="47.10892" lon="6.22545">
        <ele>595</ele>
        <time>2020-02-10T13:06:36Z</time>
      </trkpt>
      <trkpt lat="47.1096" lon="6.22693">
        <ele>597</ele>
        <time>2020-02-10T13:06:58Z</time>
      </trkpt>
      <trkpt lat="47.1096" lon="6.22693">
        <ele>597</ele>
        <time>2020-02-10T13:06:58Z</time>
      </trkpt>
      <trkpt lat="47.10986" lon="6.22787">
        <ele>596</ele>
        <time>2020-02-10T13:07:10Z</time>
      </trkpt>
      <trkpt lat="47.1102" lon="6.22867">
        <ele>595</ele>
        <time>2020-02-10T13:07:22Z</time>
      </trkpt>
      <trkpt lat="47.11049" lon="6.23033">
        <ele>596</ele>
        <time>2020-02-10T13:07:43Z</time>
      </trkpt>
      <trkpt lat="47.11081" lon="6.23137">
        <ele>597</ele>
        <time>2020-02-10T13:07:56Z</time>
      </trkpt>
      <trkpt lat="47.11153" lon="6.23235">
        <ele>599</ele>
        <time>2020-02-10T13:08:14Z</time>
      </trkpt>
      <trkpt lat="47.11206" lon="6.23321">
        <ele>601</ele>
        <time>2020-02-10T13:08:28Z</time>
      </trkpt>
      <trkpt lat="47.11254" lon="6.23414">
        <ele>601</ele>
        <time>2020-02-10T13:08:42Z</time>
      </trkpt>
      <trkpt lat="47.11274" lon="6.23468">
        <ele>600</ele>
        <time>2020-02-10T13:08:49Z</time>
      </trkpt>
      <trkpt lat="47.11298" lon="6.23515">
        <ele>599</ele>
        <time>2020-02-10T13:08:57Z</time>
      </trkpt>
      <trkpt lat="47.11332" lon="6.23578">
        <ele>599</ele>
        <time>2020-02-10T13:09:06Z</time>
      </trkpt>
      <trkpt lat="47.11372" lon="6.23641">
        <ele>600</ele>
        <time>2020-02-10T13:09:17Z</time>
      </trkpt>
      <trkpt lat="47.1141" lon="6.23686">
        <ele>600</ele>
        <time>2020-02-10T13:09:25Z</time>
      </trkpt>
      <trkpt lat="47.11462" lon="6.23729">
        <ele>598</ele>
        <time>2020-02-10T13:09:36Z</time>
      </trkpt>
      <trkpt lat="47.11542" lon="6.23771">
        <ele>597</ele>
        <time>2020-02-10T13:09:51Z</time>
      </trkpt>
      <trkpt lat="47.11702" lon="6.24015">
        <ele>596</ele>
        <time>2020-02-10T13:10:32Z</time>
      </trkpt>
      <trkpt lat="47.11834" lon="6.24203">
        <ele>600</ele>
        <time>2020-02-10T13:11:05Z</time>
      </trkpt>
      <trkpt lat="47.11867" lon="6.24238">
        <ele>601</ele>
        <time>2020-02-10T13:11:12Z</time>
      </trkpt>
      <trkpt lat="47.11903" lon="6.24246">
        <ele>602</ele>
        <time>2020-02-10T13:11:19Z</time>
      </trkpt>
      <trkpt lat="47.11913" lon="6.24243">
        <ele>603</ele>
        <time>2020-02-10T13:11:20Z</time>
      </trkpt>
      <trkpt lat="47.11933" lon="6.24221">
        <ele>601</ele>
        <time>2020-02-10T13:11:25Z</time>
      </trkpt>
      <trkpt lat="47.11985" lon="6.24137">
        <ele>598</ele>
        <time>2020-02-10T13:11:39Z</time>
      </trkpt>
      <trkpt lat="47.12045" lon="6.2413">
        <ele>599</ele>
        <time>2020-02-10T13:11:49Z</time>
      </trkpt>
      <trkpt lat="47.1208" lon="6.24163">
        <ele>600</ele>
        <time>2020-02-10T13:11:57Z</time>
      </trkpt>
      <trkpt lat="47.12093" lon="6.2417">
        <ele>600</ele>
        <time>2020-02-10T13:11:59Z</time>
      </trkpt>
      <trkpt lat="47.12119" lon="6.24174">
        <ele>600</ele>
        <time>2020-02-10T13:12:04Z</time>
      </trkpt>
      <trkpt lat="47.12134" lon="6.24163">
        <ele>601</ele>
        <time>2020-02-10T13:12:07Z</time>
      </trkpt>
      <trkpt lat="47.12134" lon="6.24163">
        <ele>601</ele>
        <time>2020-02-10T13:12:07Z</time>
      </trkpt>
      <trkpt lat="47.12207" lon="6.24284">
        <ele>598</ele>
        <time>2020-02-10T13:12:26Z</time>
      </trkpt>
      <trkpt lat="47.1225" lon="6.24346">
        <ele>597</ele>
        <time>2020-02-10T13:12:37Z</time>
      </trkpt>
      <trkpt lat="47.12281" lon="6.24412">
        <ele>599</ele>
        <time>2020-02-10T13:12:47Z</time>
      </trkpt>
      <trkpt lat="47.12301" lon="6.24467">
        <ele>600</ele>
        <time>2020-02-10T13:12:54Z</time>
      </trkpt>
      <trkpt lat="47.12358" lon="6.24564">
        <ele>605</ele>
        <time>2020-02-10T13:13:10Z</time>
      </trkpt>
      <trkpt lat="47.12391" lon="6.2465">
        <ele>606</ele>
        <time>2020-02-10T13:13:22Z</time>
      </trkpt>
      <trkpt lat="47.12402" lon="6.24673">
        <ele>607</ele>
        <time>2020-02-10T13:13:25Z</time>
      </trkpt>
      <trkpt lat="47.12428" lon="6.24711">
        <ele>607</ele>
        <time>2020-02-10T13:13:32Z</time>
      </trkpt>
      <trkpt lat="47.12428" lon="6.24711">
        <ele>607</ele>
        <time>2020-02-10T13:13:32Z</time>
      </trkpt>
      <trkpt lat="47.12429" lon="6.2473">
        <ele>607</ele>
        <time>2020-02-10T13:13:34Z</time>
      </trkpt>
      <trkpt lat="47.12442" lon="6.24782">
        <ele>606</ele>
        <time>2020-02-10T13:13:41Z</time>
      </trkpt>
      <trkpt lat="47.12467" lon="6.24856">
        <ele>605</ele>
        <time>2020-02-10T13:13:51Z</time>
      </trkpt>
      <trkpt lat="47.12471" lon="6.24893">
        <ele>604</ele>
        <time>2020-02-10T13:13:55Z</time>
      </trkpt>
      <trkpt lat="47.12515" lon="6.2505">
        <ele>603</ele>
        <time>2020-02-10T13:14:16Z</time>
      </trkpt>
      <trkpt lat="47.12561" lon="6.25167">
        <ele>606</ele>
        <time>2020-02-10T13:14:32Z</time>
      </trkpt>
      <trkpt lat="47.12594" lon="6.25273">
        <ele>603</ele>
        <time>2020-02-10T13:14:46Z</time>
      </trkpt>
      <trkpt lat="47.12612" lon="6.25393">
        <ele>603</ele>
        <time>2020-02-10T13:15:01Z</time>
      </trkpt>
      <trkpt lat="47.12626" lon="6.25599">
        <ele>610</ele>
        <time>2020-02-10T13:15:26Z</time>
      </trkpt>
      <trkpt lat="47.12626" lon="6.25599">
        <ele>610</ele>
        <time>2020-02-10T13:15:26Z</time>
      </trkpt>
      <trkpt lat="47.12633" lon="6.25744">
        <ele>610</ele>
        <time>2020-02-10T13:15:44Z</time>
      </trkpt>
      <trkpt lat="47.12637" lon="6.25771">
        <ele>610</ele>
        <time>2020-02-10T13:15:47Z</time>
      </trkpt>
      <trkpt lat="47.1265" lon="6.25808">
        <ele>610</ele>
        <time>2020-02-10T13:15:52Z</time>
      </trkpt>
      <trkpt lat="47.12685" lon="6.2585">
        <ele>609</ele>
        <time>2020-02-10T13:16:00Z</time>
      </trkpt>
      <trkpt lat="47.12737" lon="6.25888">
        <ele>607</ele>
        <time>2020-02-10T13:16:11Z</time>
      </trkpt>
      <trkpt lat="47.12748" lon="6.25903">
        <ele>606</ele>
        <time>2020-02-10T13:16:13Z</time>
      </trkpt>
      <trkpt lat="47.12762" lon="6.25925">
        <ele>606</ele>
        <time>2020-02-10T13:16:17Z</time>
      </trkpt>
      <trkpt lat="47.128" lon="6.26022">
        <ele>606</ele>
        <time>2020-02-10T13:16:31Z</time>
      </trkpt>
      <trkpt lat="47.12828" lon="6.26082">
        <ele>605</ele>
        <time>2020-02-10T13:16:39Z</time>
      </trkpt>
      <trkpt lat="47.12844" lon="6.26105">
        <ele>605</ele>
        <time>2020-02-10T13:16:43Z</time>
      </trkpt>
      <trkpt lat="47.12875" lon="6.26165">
        <ele>601</ele>
        <time>2020-02-10T13:16:52Z</time>
      </trkpt>
      <trkpt lat="47.12894" lon="6.26186">
        <ele>599</ele>
        <time>2020-02-10T13:16:57Z</time>
      </trkpt>
      <trkpt lat="47.12956" lon="6.26214">
        <ele>595</ele>
        <time>2020-02-10T13:17:08Z</time>
      </trkpt>
      <trkpt lat="47.13002" lon="6.26219">
        <ele>593</ele>
        <time>2020-02-10T13:17:16Z</time>
      </trkpt>
      <trkpt lat="47.13046" lon="6.26219">
        <ele>594</ele>
        <time>2020-02-10T13:17:24Z</time>
      </trkpt>
      <trkpt lat="47.13123" lon="6.26193">
        <ele>595</ele>
        <time>2020-02-10T13:17:38Z</time>
      </trkpt>
      <trkpt lat="47.13191" lon="6.26203">
        <ele>596</ele>
        <time>2020-02-10T13:17:50Z</time>
      </trkpt>
      <trkpt lat="47.13225" lon="6.26192">
        <ele>597</ele>
        <time>2020-02-10T13:17:57Z</time>
      </trkpt>
      <trkpt lat="47.13253" lon="6.26191">
        <ele>598</ele>
        <time>2020-02-10T13:18:02Z</time>
      </trkpt>
      <trkpt lat="47.13309" lon="6.26225">
        <ele>596</ele>
        <time>2020-02-10T13:18:12Z</time>
      </trkpt>
      <trkpt lat="47.13367" lon="6.2627">
        <ele>593</ele>
        <time>2020-02-10T13:18:24Z</time>
      </trkpt>
      <trkpt lat="47.13408" lon="6.26317">
        <ele>592</ele>
        <time>2020-02-10T13:18:33Z</time>
      </trkpt>
      <trkpt lat="47.1342" lon="6.26324">
        <ele>592</ele>
        <time>2020-02-10T13:18:36Z</time>
      </trkpt>
      <trkpt lat="47.13433" lon="6.26328">
        <ele>591</ele>
        <time>2020-02-10T13:18:38Z</time>
      </trkpt>
      <trkpt lat="47.135" lon="6.26318">
        <ele>586</ele>
        <time>2020-02-10T13:18:50Z</time>
      </trkpt>
      <trkpt lat="47.13532" lon="6.26318">
        <ele>586</ele>
        <time>2020-02-10T13:18:56Z</time>
      </trkpt>
      <trkpt lat="47.13583" lon="6.26336">
        <ele>585</ele>
        <time>2020-02-10T13:19:05Z</time>
      </trkpt>
      <trkpt lat="47.13646" lon="6.26393">
        <ele>582</ele>
        <time>2020-02-10T13:19:18Z</time>
      </trkpt>
      <trkpt lat="47.13731" lon="6.26436">
        <ele>577</ele>
        <time>2020-02-10T13:19:34Z</time>
      </trkpt>
      <trkpt lat="47.13831" lon="6.26541">
        <ele>573</ele>
        <time>2020-02-10T13:19:56Z</time>
      </trkpt>
      <trkpt lat="47.13859" lon="6.26561">
        <ele>575</ele>
        <time>2020-02-10T13:20:02Z</time>
      </trkpt>
      <trkpt lat="47.13881" lon="6.26564">
        <ele>575</ele>
        <time>2020-02-10T13:20:05Z</time>
      </trkpt>
      <trkpt lat="47.13902" lon="6.26556">
        <ele>575</ele>
        <time>2020-02-10T13:20:09Z</time>
      </trkpt>
      <trkpt lat="47.13912" lon="6.26547">
        <ele>575</ele>
        <time>2020-02-10T13:20:11Z</time>
      </trkpt>
      <trkpt lat="47.13943" lon="6.2644">
        <ele>573</ele>
        <time>2020-02-10T13:20:26Z</time>
      </trkpt>
      <trkpt lat="47.13957" lon="6.26415">
        <ele>574</ele>
        <time>2020-02-10T13:20:29Z</time>
      </trkpt>
      <trkpt lat="47.13975" lon="6.26395">
        <ele>575</ele>
        <time>2020-02-10T13:20:33Z</time>
      </trkpt>
      <trkpt lat="47.14012" lon="6.26364">
        <ele>576</ele>
        <time>2020-02-10T13:20:41Z</time>
      </trkpt>
      <trkpt lat="47.14041" lon="6.26356">
        <ele>577</ele>
        <time>2020-02-10T13:20:46Z</time>
      </trkpt>
      <trkpt lat="47.14055" lon="6.26359">
        <ele>578</ele>
        <time>2020-02-10T13:20:49Z</time>
      </trkpt>
      <trkpt lat="47.14077" lon="6.26393">
        <ele>580</ele>
        <time>2020-02-10T13:20:54Z</time>
      </trkpt>
      <trkpt lat="47.14227" lon="6.26724">
        <ele>589</ele>
        <time>2020-02-10T13:21:43Z</time>
      </trkpt>
      <trkpt lat="47.14284" lon="6.26812">
        <ele>589</ele>
        <time>2020-02-10T13:21:57Z</time>
      </trkpt>
      <trkpt lat="47.14324" lon="6.26859">
        <ele>588</ele>
        <time>2020-02-10T13:22:06Z</time>
      </trkpt>
      <trkpt lat="47.14497" lon="6.27014">
        <ele>586</ele>
        <time>2020-02-10T13:22:42Z</time>
      </trkpt>
      <trkpt lat="47.14553" lon="6.27103">
        <ele>590</ele>
        <time>2020-02-10T13:22:57Z</time>
      </trkpt>
      <trkpt lat="47.14583" lon="6.27142">
        <ele>591</ele>
        <time>2020-02-10T13:23:04Z</time>
      </trkpt>
      <trkpt lat="47.14609" lon="6.27164">
        <ele>592</ele>
        <time>2020-02-10T13:23:10Z</time>
      </trkpt>
      <trkpt lat="47.14629" lon="6.27172">
        <ele>593</ele>
        <time>2020-02-10T13:23:13Z</time>
      </trkpt>
      <trkpt lat="47.14654" lon="6.27172">
        <ele>593</ele>
        <time>2020-02-10T13:23:18Z</time>
      </trkpt>
      <trkpt lat="47.14727" lon="6.27126">
        <ele>591</ele>
        <time>2020-02-10T13:23:32Z</time>
      </trkpt>
      <trkpt lat="47.14727" lon="6.27126">
        <ele>591</ele>
        <time>2020-02-10T13:23:32Z</time>
      </trkpt>
      <trkpt lat="47.14877" lon="6.27026">
        <ele>583</ele>
        <time>2020-02-10T13:24:01Z</time>
      </trkpt>
      <trkpt lat="47.15061" lon="6.26887">
        <ele>591</ele>
        <time>2020-02-10T13:24:38Z</time>
      </trkpt>
      <trkpt lat="47.15268" lon="6.2681">
        <ele>590</ele>
        <time>2020-02-10T13:25:16Z</time>
      </trkpt>
      <trkpt lat="47.15317" lon="6.26783">
        <ele>593</ele>
        <time>2020-02-10T13:25:25Z</time>
      </trkpt>
      <trkpt lat="47.15392" lon="6.26707">
        <ele>600</ele>
        <time>2020-02-10T13:25:41Z</time>
      </trkpt>
      <trkpt lat="47.15421" lon="6.26668">
        <ele>604</ele>
        <time>2020-02-10T13:25:48Z</time>
      </trkpt>
      <trkpt lat="47.15421" lon="6.26668">
        <ele>604</ele>
        <time>2020-02-10T13:25:48Z</time>
      </trkpt>
      <trkpt lat="47.15434" lon="6.26657">
        <ele>604</ele>
        <time>2020-02-10T13:25:51Z</time>
      </trkpt>
      <trkpt lat="47.15434" lon="6.26657">
        <ele>604</ele>
        <time>2020-02-10T13:25:51Z</time>
      </trkpt>
      <trkpt lat="47.15409" lon="6.26575">
        <ele>601</ele>
        <time>2020-02-10T13:26:02Z</time>
      </trkpt>
      <trkpt lat="47.15407" lon="6.26544">
        <ele>601</ele>
        <time>2020-02-10T13:26:06Z</time>
      </trkpt>
      <trkpt lat="47.1541" lon="6.26399">
        <ele>599</ele>
        <time>2020-02-10T13:26:23Z</time>
      </trkpt>
      <trkpt lat="47.15425" lon="6.2627">
        <ele>595</ele>
        <time>2020-02-10T13:26:39Z</time>
      </trkpt>
      <trkpt lat="47.15434" lon="6.26139">
        <ele>595</ele>
        <time>2020-02-10T13:26:55Z</time>
      </trkpt>
      <trkpt lat="47.15432" lon="6.26029">
        <ele>599</ele>
        <time>2020-02-10T13:27:08Z</time>
      </trkpt>
      <trkpt lat="47.15426" lon="6.25999">
        <ele>600</ele>
        <time>2020-02-10T13:27:12Z</time>
      </trkpt>
      <trkpt lat="47.1539" lon="6.25929">
        <ele>598</ele>
        <time>2020-02-10T13:27:23Z</time>
      </trkpt>
      <trkpt lat="47.1538" lon="6.25894">
        <ele>598</ele>
        <time>2020-02-10T13:27:27Z</time>
      </trkpt>
      <trkpt lat="47.1538" lon="6.25832">
        <ele>597</ele>
        <time>2020-02-10T13:27:35Z</time>
      </trkpt>
      <trkpt lat="47.15366" lon="6.25763">
        <ele>596</ele>
        <time>2020-02-10T13:27:44Z</time>
      </trkpt>
      <trkpt lat="47.15255" lon="6.25283">
        <ele>584</ele>
        <time>2020-02-10T13:28:45Z</time>
      </trkpt>
      <trkpt lat="47.15145" lon="6.24747">
        <ele>580</ele>
        <time>2020-02-10T13:29:53Z</time>
      </trkpt>
      <trkpt lat="47.15145" lon="6.24747">
        <ele>580</ele>
        <time>2020-02-10T13:29:53Z</time>
      </trkpt>
      <trkpt lat="47.15121" lon="6.24609">
        <ele>580</ele>
        <time>2020-02-10T13:30:10Z</time>
      </trkpt>
      <trkpt lat="47.15115" lon="6.24558">
        <ele>579</ele>
        <time>2020-02-10T13:30:16Z</time>
      </trkpt>
      <trkpt lat="47.15116" lon="6.2453">
        <ele>579</ele>
        <time>2020-02-10T13:30:20Z</time>
      </trkpt>
      <trkpt lat="47.15116" lon="6.2453">
        <ele>579</ele>
        <time>2020-02-10T13:30:20Z</time>
      </trkpt>
      <trkpt lat="47.14958" lon="6.2431">
        <ele>575</ele>
        <time>2020-02-10T13:30:58Z</time>
      </trkpt>
      <trkpt lat="47.14633" lon="6.23842">
        <ele>573</ele>
        <time>2020-02-10T13:32:19Z</time>
      </trkpt>
      <trkpt lat="47.14424" lon="6.23551">
        <ele>570</ele>
        <time>2020-02-10T13:33:10Z</time>
      </trkpt>
      <trkpt lat="47.14424" lon="6.23551">
        <ele>570</ele>
        <time>2020-02-10T13:33:11Z</time>
      </trkpt>
      <trkpt lat="47.14217" lon="6.23272">
        <ele>572</ele>
        <time>2020-02-10T13:34:00Z</time>
      </trkpt>
      <trkpt lat="47.14217" lon="6.23272">
        <ele>572</ele>
        <time>2020-02-10T13:34:00Z</time>
      </trkpt>
      <trkpt lat="47.1423" lon="6.2324">
        <ele>573</ele>
        <time>2020-02-10T13:34:05Z</time>
      </trkpt>
      <trkpt lat="47.1422" lon="6.23156">
        <ele>574</ele>
        <time>2020-02-10T13:34:15Z</time>
      </trkpt>
      <trkpt lat="47.14222" lon="6.23097">
        <ele>575</ele>
        <time>2020-02-10T13:34:22Z</time>
      </trkpt>
      <trkpt lat="47.14231" lon="6.23072">
        <ele>576</ele>
        <time>2020-02-10T13:34:26Z</time>
      </trkpt>
      <trkpt lat="47.14257" lon="6.23051">
        <ele>577</ele>
        <time>2020-02-10T13:34:31Z</time>
      </trkpt>
      <trkpt lat="47.14305" lon="6.23043">
        <ele>578</ele>
        <time>2020-02-10T13:34:40Z</time>
      </trkpt>
      <trkpt lat="47.14358" lon="6.23027">
        <ele>578</ele>
        <time>2020-02-10T13:34:49Z</time>
      </trkpt>
      <trkpt lat="47.14424" lon="6.23025">
        <ele>580</ele>
        <time>2020-02-10T13:35:01Z</time>
      </trkpt>
      <trkpt lat="47.14439" lon="6.23018">
        <ele>579</ele>
        <time>2020-02-10T13:35:04Z</time>
      </trkpt>
      <trkpt lat="47.14487" lon="6.2296">
        <ele>574</ele>
        <time>2020-02-10T13:35:15Z</time>
      </trkpt>
      <trkpt lat="47.14585" lon="6.22825">
        <ele>567</ele>
        <time>2020-02-10T13:35:39Z</time>
      </trkpt>
      <trkpt lat="47.14589" lon="6.22805">
        <ele>566</ele>
        <time>2020-02-10T13:35:41Z</time>
      </trkpt>
      <trkpt lat="47.14587" lon="6.22768">
        <ele>566</ele>
        <time>2020-02-10T13:35:46Z</time>
      </trkpt>
      <trkpt lat="47.14553" lon="6.22594">
        <ele>563</ele>
        <time>2020-02-10T13:36:08Z</time>
      </trkpt>
      <trkpt lat="47.14551" lon="6.2247">
        <ele>560</ele>
        <time>2020-02-10T13:36:23Z</time>
      </trkpt>
      <trkpt lat="47.14559" lon="6.22412">
        <ele>558</ele>
        <time>2020-02-10T13:36:30Z</time>
      </trkpt>
      <trkpt lat="47.1457" lon="6.22385">
        <ele>556</ele>
        <time>2020-02-10T13:36:34Z</time>
      </trkpt>
      <trkpt lat="47.1458" lon="6.22366">
        <ele>555</ele>
        <time>2020-02-10T13:36:37Z</time>
      </trkpt>
      <trkpt lat="47.14606" lon="6.22334">
        <ele>553</ele>
        <time>2020-02-10T13:36:43Z</time>
      </trkpt>
      <trkpt lat="47.14636" lon="6.22307">
        <ele>552</ele>
        <time>2020-02-10T13:36:49Z</time>
      </trkpt>
      <trkpt lat="47.14645" lon="6.22291">
        <ele>552</ele>
        <time>2020-02-10T13:36:51Z</time>
      </trkpt>
      <trkpt lat="47.14649" lon="6.22273">
        <ele>552</ele>
        <time>2020-02-10T13:36:54Z</time>
      </trkpt>
      <trkpt lat="47.14673" lon="6.21919">
        <ele>548</ele>
        <time>2020-02-10T13:37:37Z</time>
      </trkpt>
      <trkpt lat="47.14672" lon="6.21773">
        <ele>544</ele>
        <time>2020-02-10T13:37:55Z</time>
      </trkpt>
      <trkpt lat="47.14682" lon="6.21633">
        <ele>542</ele>
        <time>2020-02-10T13:38:12Z</time>
      </trkpt>
      <trkpt lat="47.14692" lon="6.21566">
        <ele>541</ele>
        <time>2020-02-10T13:38:20Z</time>
      </trkpt>
      <trkpt lat="47.14695" lon="6.21551">
        <ele>540</ele>
        <time>2020-02-10T13:38:22Z</time>
      </trkpt>
      <trkpt lat="47.14712" lon="6.21523">
        <ele>540</ele>
        <time>2020-02-10T13:38:26Z</time>
      </trkpt>
      <trkpt lat="47.14728" lon="6.21504">
        <ele>539</ele>
        <time>2020-02-10T13:38:30Z</time>
      </trkpt>
      <trkpt lat="47.14744" lon="6.21494">
        <ele>539</ele>
        <time>2020-02-10T13:38:33Z</time>
      </trkpt>
      <trkpt lat="47.14769" lon="6.21486">
        <ele>537</ele>
        <time>2020-02-10T13:38:38Z</time>
      </trkpt>
      <trkpt lat="47.14826" lon="6.2149">
        <ele>534</ele>
        <time>2020-02-10T13:38:48Z</time>
      </trkpt>
      <trkpt lat="47.14826" lon="6.2149">
        <ele>534</ele>
        <time>2020-02-10T13:38:48Z</time>
      </trkpt>
      <trkpt lat="47.14851" lon="6.21502">
        <ele>534</ele>
        <time>2020-02-10T13:38:52Z</time>
      </trkpt>
      <trkpt lat="47.1489" lon="6.21531">
        <ele>534</ele>
        <time>2020-02-10T13:39:00Z</time>
      </trkpt>
      <trkpt lat="47.14905" lon="6.21531">
        <ele>534</ele>
        <time>2020-02-10T13:39:03Z</time>
      </trkpt>
      <trkpt lat="47.14905" lon="6.21531">
        <ele>534</ele>
        <time>2020-02-10T13:39:03Z</time>
      </trkpt>
      <trkpt lat="47.14914" lon="6.21505">
        <ele>533</ele>
        <time>2020-02-10T13:39:06Z</time>
      </trkpt>
      <trkpt lat="47.14913" lon="6.2147">
        <ele>533</ele>
        <time>2020-02-10T13:39:11Z</time>
      </trkpt>
      <trkpt lat="47.14905" lon="6.21411">
        <ele>533</ele>
        <time>2020-02-10T13:39:18Z</time>
      </trkpt>
      <trkpt lat="47.14882" lon="6.21307">
        <ele>533</ele>
        <time>2020-02-10T13:39:31Z</time>
      </trkpt>
      <trkpt lat="47.14886" lon="6.21199">
        <ele>533</ele>
        <time>2020-02-10T13:39:44Z</time>
      </trkpt>
      <trkpt lat="47.14886" lon="6.21199">
        <ele>533</ele>
        <time>2020-02-10T13:39:44Z</time>
      </trkpt>
      <trkpt lat="47.14915" lon="6.21192">
        <ele>535</ele>
        <time>2020-02-10T13:39:49Z</time>
      </trkpt>
      <trkpt lat="47.14952" lon="6.21163">
        <ele>534</ele>
        <time>2020-02-10T13:39:57Z</time>
      </trkpt>
      <trkpt lat="47.15001" lon="6.21111">
        <ele>533</ele>
        <time>2020-02-10T13:40:08Z</time>
      </trkpt>
      <trkpt lat="47.15057" lon="6.21061">
        <ele>534</ele>
        <time>2020-02-10T13:40:19Z</time>
      </trkpt>
      <trkpt lat="47.1508" lon="6.21053">
        <ele>535</ele>
        <time>2020-02-10T13:40:24Z</time>
      </trkpt>
      <trkpt lat="47.15164" lon="6.21103">
        <ele>536</ele>
        <time>2020-02-10T13:40:40Z</time>
      </trkpt>
      <trkpt lat="47.15192" lon="6.21105">
        <ele>537</ele>
        <time>2020-02-10T13:40:45Z</time>
      </trkpt>
      <trkpt lat="47.15229" lon="6.21116">
        <ele>538</ele>
        <time>2020-02-10T13:40:51Z</time>
      </trkpt>
      <trkpt lat="47.15432" lon="6.21213">
        <ele>542</ele>
        <time>2020-02-10T13:41:29Z</time>
      </trkpt>
      <trkpt lat="47.15548" lon="6.21219">
        <ele>544</ele>
        <time>2020-02-10T13:41:50Z</time>
      </trkpt>
      <trkpt lat="47.15586" lon="6.21228">
        <ele>545</ele>
        <time>2020-02-10T13:41:57Z</time>
      </trkpt>
      <trkpt lat="47.15703" lon="6.21271">
        <ele>551</ele>
        <time>2020-02-10T13:42:18Z</time>
      </trkpt>
      <trkpt lat="47.1576" lon="6.213">
        <ele>553</ele>
        <time>2020-02-10T13:42:29Z</time>
      </trkpt>
      <trkpt lat="47.15822" lon="6.21323">
        <ele>554</ele>
        <time>2020-02-10T13:42:40Z</time>
      </trkpt>
      <trkpt lat="47.15851" lon="6.2133">
        <ele>554</ele>
        <time>2020-02-10T13:42:46Z</time>
      </trkpt>
      <trkpt lat="47.15932" lon="6.21331">
        <ele>556</ele>
        <time>2020-02-10T13:43:00Z</time>
      </trkpt>
      <trkpt lat="47.15953" lon="6.21335">
        <ele>556</ele>
        <time>2020-02-10T13:43:04Z</time>
      </trkpt>
      <trkpt lat="47.15994" lon="6.21356">
        <ele>558</ele>
        <time>2020-02-10T13:43:12Z</time>
      </trkpt>
      <trkpt lat="47.16047" lon="6.2137">
        <ele>561</ele>
        <time>2020-02-10T13:43:21Z</time>
      </trkpt>
      <trkpt lat="47.16233" lon="6.21393">
        <ele>567</ele>
        <time>2020-02-10T13:43:54Z</time>
      </trkpt>
      <trkpt lat="47.16251" lon="6.21397">
        <ele>569</ele>
        <time>2020-02-10T13:43:58Z</time>
      </trkpt>
      <trkpt lat="47.16305" lon="6.21424">
        <ele>569</ele>
        <time>2020-02-10T13:44:08Z</time>
      </trkpt>
      <trkpt lat="47.16396" lon="6.21423">
        <ele>564</ele>
        <time>2020-02-10T13:44:24Z</time>
      </trkpt>
      <trkpt lat="47.16489" lon="6.21407">
        <ele>560</ele>
        <time>2020-02-10T13:44:41Z</time>
      </trkpt>
      <trkpt lat="47.1652" lon="6.21407">
        <ele>560</ele>
        <time>2020-02-10T13:44:46Z</time>
      </trkpt>
      <trkpt lat="47.16642" lon="6.21452">
        <ele>563</ele>
        <time>2020-02-10T13:45:08Z</time>
      </trkpt>
      <trkpt lat="47.16642" lon="6.21452">
        <ele>563</ele>
        <time>2020-02-10T13:45:08Z</time>
      </trkpt>
      <trkpt lat="47.1671" lon="6.21482">
        <ele>564</ele>
        <time>2020-02-10T13:45:21Z</time>
      </trkpt>
      <trkpt lat="47.1676" lon="6.21538">
        <ele>563</ele>
        <time>2020-02-10T13:45:32Z</time>
      </trkpt>
      <trkpt lat="47.16779" lon="6.21548">
        <ele>562</ele>
        <time>2020-02-10T13:45:36Z</time>
      </trkpt>
      <trkpt lat="47.16797" lon="6.21551">
        <ele>561</ele>
        <time>2020-02-10T13:45:39Z</time>
      </trkpt>
      <trkpt lat="47.16797" lon="6.21551">
        <ele>561</ele>
        <time>2020-02-10T13:45:39Z</time>
      </trkpt>
      <trkpt lat="47.16826" lon="6.21534">
        <ele>560</ele>
        <time>2020-02-10T13:45:45Z</time>
      </trkpt>
      <trkpt lat="47.16851" lon="6.21507">
        <ele>560</ele>
        <time>2020-02-10T13:45:50Z</time>
      </trkpt>
      <trkpt lat="47.16918" lon="6.21459">
        <ele>559</ele>
        <time>2020-02-10T13:46:03Z</time>
      </trkpt>
      <trkpt lat="47.16982" lon="6.21444">
        <ele>561</ele>
        <time>2020-02-10T13:46:15Z</time>
      </trkpt>
      <trkpt lat="47.16997" lon="6.21445">
        <ele>562</ele>
        <time>2020-02-10T13:46:18Z</time>
      </trkpt>
      <trkpt lat="47.1702" lon="6.21483">
        <ele>562</ele>
        <time>2020-02-10T13:46:24Z</time>
      </trkpt>
      <trkpt lat="47.1706" lon="6.21586">
        <ele>562</ele>
        <time>2020-02-10T13:46:38Z</time>
      </trkpt>
      <trkpt lat="47.17084" lon="6.21632">
        <ele>562</ele>
        <time>2020-02-10T13:46:45Z</time>
      </trkpt>
      <trkpt lat="47.1711" lon="6.21668">
        <ele>561</ele>
        <time>2020-02-10T13:46:52Z</time>
      </trkpt>
      <trkpt lat="47.17131" lon="6.21686">
        <ele>561</ele>
        <time>2020-02-10T13:46:56Z</time>
      </trkpt>
      <trkpt lat="47.17191" lon="6.21695">
        <ele>563</ele>
        <time>2020-02-10T13:47:07Z</time>
      </trkpt>
      <trkpt lat="47.17191" lon="6.21695">
        <ele>563</ele>
        <time>2020-02-10T13:47:07Z</time>
      </trkpt>
      <trkpt lat="47.17198" lon="6.21685">
        <ele>563</ele>
        <time>2020-02-10T13:47:08Z</time>
      </trkpt>
      <trkpt lat="47.17271" lon="6.21432">
        <ele>566</ele>
        <time>2020-02-10T13:47:42Z</time>
      </trkpt>
      <trkpt lat="47.17271" lon="6.21432">
        <ele>566</ele>
        <time>2020-02-10T13:47:42Z</time>
      </trkpt>
      <trkpt lat="47.17307" lon="6.21306">
        <ele>568</ele>
        <time>2020-02-10T13:47:58Z</time>
      </trkpt>
      <trkpt lat="47.17342" lon="6.21164">
        <ele>568</ele>
        <time>2020-02-10T13:48:16Z</time>
      </trkpt>
      <trkpt lat="47.17368" lon="6.21075">
        <ele>572</ele>
        <time>2020-02-10T13:48:28Z</time>
      </trkpt>
      <trkpt lat="47.17391" lon="6.21017">
        <ele>575</ele>
        <time>2020-02-10T13:48:36Z</time>
      </trkpt>
      <trkpt lat="47.17568" lon="6.20725">
        <ele>566</ele>
        <time>2020-02-10T13:49:23Z</time>
      </trkpt>
      <trkpt lat="47.17568" lon="6.20725">
        <ele>566</ele>
        <time>2020-02-10T13:49:23Z</time>
      </trkpt>
      <trkpt lat="47.17509" lon="6.20573">
        <ele>562</ele>
        <time>2020-02-10T13:49:45Z</time>
      </trkpt>
      <trkpt lat="47.17491" lon="6.20543">
        <ele>561</ele>
        <time>2020-02-10T13:49:50Z</time>
      </trkpt>
      <trkpt lat="47.17468" lon="6.20491">
        <ele>560</ele>
        <time>2020-02-10T13:49:57Z</time>
      </trkpt>
      <trkpt lat="47.17449" lon="6.20424">
        <ele>560</ele>
        <time>2020-02-10T13:50:06Z</time>
      </trkpt>
      <trkpt lat="47.17436" lon="6.2029">
        <ele>557</ele>
        <time>2020-02-10T13:50:22Z</time>
      </trkpt>
      <trkpt lat="47.17426" lon="6.20246">
        <ele>557</ele>
        <time>2020-02-10T13:50:28Z</time>
      </trkpt>
      <trkpt lat="47.17419" lon="6.20231">
        <ele>558</ele>
        <time>2020-02-10T13:50:30Z</time>
      </trkpt>
      <trkpt lat="47.17377" lon="6.20174">
        <ele>558</ele>
        <time>2020-02-10T13:50:40Z</time>
      </trkpt>
      <trkpt lat="47.17326" lon="6.20077">
        <ele>558</ele>
        <time>2020-02-10T13:50:55Z</time>
      </trkpt>
      <trkpt lat="47.17309" lon="6.20034">
        <ele>560</ele>
        <time>2020-02-10T13:51:01Z</time>
      </trkpt>
      <trkpt lat="47.17261" lon="6.1987">
        <ele>560</ele>
        <time>2020-02-10T13:51:23Z</time>
      </trkpt>
      <trkpt lat="47.17255" lon="6.19836">
        <ele>560</ele>
        <time>2020-02-10T13:51:27Z</time>
      </trkpt>
      <trkpt lat="47.17261" lon="6.19757">
        <ele>560</ele>
        <time>2020-02-10T13:51:36Z</time>
      </trkpt>
      <trkpt lat="47.1727" lon="6.19739">
        <ele>559</ele>
        <time>2020-02-10T13:51:39Z</time>
      </trkpt>
      <trkpt lat="47.17292" lon="6.19724">
        <ele>559</ele>
        <time>2020-02-10T13:51:43Z</time>
      </trkpt>
      <trkpt lat="47.1731" lon="6.19699">
        <ele>559</ele>
        <time>2020-02-10T13:51:48Z</time>
      </trkpt>
      <trkpt lat="47.17317" lon="6.19678">
        <ele>560</ele>
        <time>2020-02-10T13:51:51Z</time>
      </trkpt>
      <trkpt lat="47.1732" lon="6.19641">
        <ele>561</ele>
        <time>2020-02-10T13:51:55Z</time>
      </trkpt>
      <trkpt lat="47.17315" lon="6.19615">
        <ele>561</ele>
        <time>2020-02-10T13:51:58Z</time>
      </trkpt>
      <trkpt lat="47.17297" lon="6.19563">
        <ele>561</ele>
        <time>2020-02-10T13:52:06Z</time>
      </trkpt>
      <trkpt lat="47.17289" lon="6.19504">
        <ele>560</ele>
        <time>2020-02-10T13:52:13Z</time>
      </trkpt>
      <trkpt lat="47.17287" lon="6.19431">
        <ele>556</ele>
        <time>2020-02-10T13:52:22Z</time>
      </trkpt>
      <trkpt lat="47.1727" lon="6.19382">
        <ele>553</ele>
        <time>2020-02-10T13:52:28Z</time>
      </trkpt>
      <trkpt lat="47.17254" lon="6.19353">
        <ele>551</ele>
        <time>2020-02-10T13:52:33Z</time>
      </trkpt>
      <trkpt lat="47.17202" lon="6.19284">
        <ele>549</ele>
        <time>2020-02-10T13:52:45Z</time>
      </trkpt>
      <trkpt lat="47.17089" lon="6.19195">
        <ele>545</ele>
        <time>2020-02-10T13:53:08Z</time>
      </trkpt>
      <trkpt lat="47.17073" lon="6.19162">
        <ele>543</ele>
        <time>2020-02-10T13:53:13Z</time>
      </trkpt>
      <trkpt lat="47.17062" lon="6.19105">
        <ele>542</ele>
        <time>2020-02-10T13:53:20Z</time>
      </trkpt>
      <trkpt lat="47.17042" lon="6.19071">
        <ele>540</ele>
        <time>2020-02-10T13:53:26Z</time>
      </trkpt>
      <trkpt lat="47.16979" lon="6.19042">
        <ele>538</ele>
        <time>2020-02-10T13:53:37Z</time>
      </trkpt>
      <trkpt lat="47.16867" lon="6.18969">
        <ele>534</ele>
        <time>2020-02-10T13:53:59Z</time>
      </trkpt>
      <trkpt lat="47.16867" lon="6.18969">
        <ele>534</ele>
        <time>2020-02-10T13:53:59Z</time>
      </trkpt>
      <trkpt lat="47.16817" lon="6.18929">
        <ele>532</ele>
        <time>2020-02-10T13:54:09Z</time>
      </trkpt>
      <trkpt lat="47.16804" lon="6.1891">
        <ele>532</ele>
        <time>2020-02-10T13:54:13Z</time>
      </trkpt>
      <trkpt lat="47.16791" lon="6.18875">
        <ele>529</ele>
        <time>2020-02-10T13:54:17Z</time>
      </trkpt>
      <trkpt lat="47.16781" lon="6.18819">
        <ele>525</ele>
        <time>2020-02-10T13:54:24Z</time>
      </trkpt>
      <trkpt lat="47.16766" lon="6.18772">
        <ele>523</ele>
        <time>2020-02-10T13:54:31Z</time>
      </trkpt>
      <trkpt lat="47.16749" lon="6.18746">
        <ele>522</ele>
        <time>2020-02-10T13:54:35Z</time>
      </trkpt>
      <trkpt lat="47.16715" lon="6.18721">
        <ele>523</ele>
        <time>2020-02-10T13:54:42Z</time>
      </trkpt>
      <trkpt lat="47.16693" lon="6.18692">
        <ele>523</ele>
        <time>2020-02-10T13:54:47Z</time>
      </trkpt>
      <trkpt lat="47.16676" lon="6.18657">
        <ele>522</ele>
        <time>2020-02-10T13:54:52Z</time>
      </trkpt>
      <trkpt lat="47.16667" lon="6.18624">
        <ele>522</ele>
        <time>2020-02-10T13:54:57Z</time>
      </trkpt>
      <trkpt lat="47.16668" lon="6.18599">
        <ele>523</ele>
        <time>2020-02-10T13:55:00Z</time>
      </trkpt>
      <trkpt lat="47.16675" lon="6.18568">
        <ele>524</ele>
        <time>2020-02-10T13:55:04Z</time>
      </trkpt>
      <trkpt lat="47.1671" lon="6.1846">
        <ele>524</ele>
        <time>2020-02-10T13:55:18Z</time>
      </trkpt>
      <trkpt lat="47.16728" lon="6.18387">
        <ele>524</ele>
        <time>2020-02-10T13:55:27Z</time>
      </trkpt>
      <trkpt lat="47.16755" lon="6.18248">
        <ele>524</ele>
        <time>2020-02-10T13:55:45Z</time>
      </trkpt>
      <trkpt lat="47.16775" lon="6.18096">
        <ele>527</ele>
        <time>2020-02-10T13:56:04Z</time>
      </trkpt>
      <trkpt lat="47.16788" lon="6.18045">
        <ele>527</ele>
        <time>2020-02-10T13:56:10Z</time>
      </trkpt>
      <trkpt lat="47.16813" lon="6.17971">
        <ele>525</ele>
        <time>2020-02-10T13:56:20Z</time>
      </trkpt>
      <trkpt lat="47.16845" lon="6.17705">
        <ele>524</ele>
        <time>2020-02-10T13:56:53Z</time>
      </trkpt>
      <trkpt lat="47.169" lon="6.17189">
        <ele>538</ele>
        <time>2020-02-10T13:57:56Z</time>
      </trkpt>
      <trkpt lat="47.16915" lon="6.17133">
        <ele>536</ele>
        <time>2020-02-10T13:58:03Z</time>
      </trkpt>
      <trkpt lat="47.16956" lon="6.17047">
        <ele>535</ele>
        <time>2020-02-10T13:58:16Z</time>
      </trkpt>
      <trkpt lat="47.16962" lon="6.1702">
        <ele>534</ele>
        <time>2020-02-10T13:58:19Z</time>
      </trkpt>
      <trkpt lat="47.16963" lon="6.16994">
        <ele>532</ele>
        <time>2020-02-10T13:58:23Z</time>
      </trkpt>
      <trkpt lat="47.16954" lon="6.16961">
        <ele>531</ele>
        <time>2020-02-10T13:58:27Z</time>
      </trkpt>
      <trkpt lat="47.16926" lon="6.16931">
        <ele>529</ele>
        <time>2020-02-10T13:58:33Z</time>
      </trkpt>
      <trkpt lat="47.16914" lon="6.16906">
        <ele>528</ele>
        <time>2020-02-10T13:58:37Z</time>
      </trkpt>
      <trkpt lat="47.16901" lon="6.16829">
        <ele>529</ele>
        <time>2020-02-10T13:58:46Z</time>
      </trkpt>
      <trkpt lat="47.16906" lon="6.1674">
        <ele>532</ele>
        <time>2020-02-10T13:58:57Z</time>
      </trkpt>
      <trkpt lat="47.16934" lon="6.16595">
        <ele>532</ele>
        <time>2020-02-10T13:59:15Z</time>
      </trkpt>
      <trkpt lat="47.16938" lon="6.16536">
        <ele>530</ele>
        <time>2020-02-10T13:59:23Z</time>
      </trkpt>
      <trkpt lat="47.16935" lon="6.1638">
        <ele>532</ele>
        <time>2020-02-10T13:59:41Z</time>
      </trkpt>
      <trkpt lat="47.16922" lon="6.16305">
        <ele>534</ele>
        <time>2020-02-10T13:59:51Z</time>
      </trkpt>
      <trkpt lat="47.16847" lon="6.16026">
        <ele>537</ele>
        <time>2020-02-10T14:00:27Z</time>
      </trkpt>
      <trkpt lat="47.16839" lon="6.15964">
        <ele>538</ele>
        <time>2020-02-10T14:00:35Z</time>
      </trkpt>
      <trkpt lat="47.16837" lon="6.15851">
        <ele>540</ele>
        <time>2020-02-10T14:00:48Z</time>
      </trkpt>
      <trkpt lat="47.16863" lon="6.15558">
        <ele>543</ele>
        <time>2020-02-10T14:01:24Z</time>
      </trkpt>
      <trkpt lat="47.16863" lon="6.15526">
        <ele>544</ele>
        <time>2020-02-10T14:01:28Z</time>
      </trkpt>
      <trkpt lat="47.16832" lon="6.15395">
        <ele>544</ele>
        <time>2020-02-10T14:01:45Z</time>
      </trkpt>
      <trkpt lat="47.16829" lon="6.15341">
        <ele>546</ele>
        <time>2020-02-10T14:01:51Z</time>
      </trkpt>
      <trkpt lat="47.16794" lon="6.15213">
        <ele>546</ele>
        <time>2020-02-10T14:02:08Z</time>
      </trkpt>
      <trkpt lat="47.16777" lon="6.15172">
        <ele>546</ele>
        <time>2020-02-10T14:02:14Z</time>
      </trkpt>
      <trkpt lat="47.16777" lon="6.15172">
        <ele>546</ele>
        <time>2020-02-10T14:02:14Z</time>
      </trkpt>
      <trkpt lat="47.16767" lon="6.15151">
        <ele>547</ele>
        <time>2020-02-10T14:02:17Z</time>
      </trkpt>
      <trkpt lat="47.16744" lon="6.15043">
        <ele>550</ele>
        <time>2020-02-10T14:02:31Z</time>
      </trkpt>
      <trkpt lat="47.16708" lon="6.14919">
        <ele>550</ele>
        <time>2020-02-10T14:02:47Z</time>
      </trkpt>
      <trkpt lat="47.16708" lon="6.14919">
        <ele>550</ele>
        <time>2020-02-10T14:02:47Z</time>
      </trkpt>
      <trkpt lat="47.16725" lon="6.14905">
        <ele>548</ele>
        <time>2020-02-10T14:02:50Z</time>
      </trkpt>
      <trkpt lat="47.16744" lon="6.14869">
        <ele>546</ele>
        <time>2020-02-10T14:02:56Z</time>
      </trkpt>
      <trkpt lat="47.16763" lon="6.14854">
        <ele>544</ele>
        <time>2020-02-10T14:03:00Z</time>
      </trkpt>
      <trkpt lat="47.16763" lon="6.14854">
        <ele>544</ele>
        <time>2020-02-10T14:03:00Z</time>
      </trkpt>
      <trkpt lat="47.16878" lon="6.14799">
        <ele>535</ele>
        <time>2020-02-10T14:03:21Z</time>
      </trkpt>
      <trkpt lat="47.16898" lon="6.14797">
        <ele>534</ele>
        <time>2020-02-10T14:03:25Z</time>
      </trkpt>
      <trkpt lat="47.16928" lon="6.14803">
        <ele>533</ele>
        <time>2020-02-10T14:03:30Z</time>
      </trkpt>
      <trkpt lat="47.1704" lon="6.14842">
        <ele>536</ele>
        <time>2020-02-10T14:03:51Z</time>
      </trkpt>
      <trkpt lat="47.17126" lon="6.14915">
        <ele>540</ele>
        <time>2020-02-10T14:04:08Z</time>
      </trkpt>
      <trkpt lat="47.17199" lon="6.14961">
        <ele>540</ele>
        <time>2020-02-10T14:04:23Z</time>
      </trkpt>
      <trkpt lat="47.17237" lon="6.14974">
        <ele>538</ele>
        <time>2020-02-10T14:04:29Z</time>
      </trkpt>
      <trkpt lat="47.17313" lon="6.1498">
        <ele>536</ele>
        <time>2020-02-10T14:04:43Z</time>
      </trkpt>
      <trkpt lat="47.17334" lon="6.14986">
        <ele>536</ele>
        <time>2020-02-10T14:04:47Z</time>
      </trkpt>
      <trkpt lat="47.17358" lon="6.15004">
        <ele>538</ele>
        <time>2020-02-10T14:04:52Z</time>
      </trkpt>
      <trkpt lat="47.17427" lon="6.15075">
        <ele>541</ele>
        <time>2020-02-10T14:05:07Z</time>
      </trkpt>
      <trkpt lat="47.17454" lon="6.15076">
        <ele>543</ele>
        <time>2020-02-10T14:05:11Z</time>
      </trkpt>
      <trkpt lat="47.17459" lon="6.15066">
        <ele>545</ele>
        <time>2020-02-10T14:05:13Z</time>
      </trkpt>
      <trkpt lat="47.17456" lon="6.15015">
        <ele>547</ele>
        <time>2020-02-10T14:05:19Z</time>
      </trkpt>
      <trkpt lat="47.17425" lon="6.14913">
        <ele>546</ele>
        <time>2020-02-10T14:05:33Z</time>
      </trkpt>
      <trkpt lat="47.17418" lon="6.14872">
        <ele>548</ele>
        <time>2020-02-10T14:05:38Z</time>
      </trkpt>
      <trkpt lat="47.17418" lon="6.14849">
        <ele>549</ele>
        <time>2020-02-10T14:05:40Z</time>
      </trkpt>
      <trkpt lat="47.17422" lon="6.14776">
        <ele>558</ele>
        <time>2020-02-10T14:05:49Z</time>
      </trkpt>
      <trkpt lat="47.17431" lon="6.14736">
        <ele>561</ele>
        <time>2020-02-10T14:05:54Z</time>
      </trkpt>
      <trkpt lat="47.17439" lon="6.14717">
        <ele>561</ele>
        <time>2020-02-10T14:05:57Z</time>
      </trkpt>
      <trkpt lat="47.17461" lon="6.14687">
        <ele>560</ele>
        <time>2020-02-10T14:06:02Z</time>
      </trkpt>
      <trkpt lat="47.17473" lon="6.14679">
        <ele>560</ele>
        <time>2020-02-10T14:06:05Z</time>
      </trkpt>
      <trkpt lat="47.17513" lon="6.14667">
        <ele>559</ele>
        <time>2020-02-10T14:06:12Z</time>
      </trkpt>
      <trkpt lat="47.17629" lon="6.14654">
        <ele>566</ele>
        <time>2020-02-10T14:06:33Z</time>
      </trkpt>
      <trkpt lat="47.17745" lon="6.14621">
        <ele>569</ele>
        <time>2020-02-10T14:06:54Z</time>
      </trkpt>
      <trkpt lat="47.17908" lon="6.14555">
        <ele>574</ele>
        <time>2020-02-10T14:07:24Z</time>
      </trkpt>
      <trkpt lat="47.17981" lon="6.14519">
        <ele>573</ele>
        <time>2020-02-10T14:07:38Z</time>
      </trkpt>
      <trkpt lat="47.18021" lon="6.14514">
        <ele>573</ele>
        <time>2020-02-10T14:07:45Z</time>
      </trkpt>
      <trkpt lat="47.18065" lon="6.14524">
        <ele>575</ele>
        <time>2020-02-10T14:07:53Z</time>
      </trkpt>
      <trkpt lat="47.18238" lon="6.1459">
        <ele>582</ele>
        <time>2020-02-10T14:08:24Z</time>
      </trkpt>
      <trkpt lat="47.18304" lon="6.14627">
        <ele>584</ele>
        <time>2020-02-10T14:08:37Z</time>
      </trkpt>
      <trkpt lat="47.18348" lon="6.14659">
        <ele>588</ele>
        <time>2020-02-10T14:08:46Z</time>
      </trkpt>
      <trkpt lat="47.18469" lon="6.1476">
        <ele>591</ele>
        <time>2020-02-10T14:09:11Z</time>
      </trkpt>
      <trkpt lat="47.18531" lon="6.1478">
        <ele>582</ele>
        <time>2020-02-10T14:09:22Z</time>
      </trkpt>
      <trkpt lat="47.18598" lon="6.14789">
        <ele>568</ele>
        <time>2020-02-10T14:09:34Z</time>
      </trkpt>
      <trkpt lat="47.18626" lon="6.14804">
        <ele>567</ele>
        <time>2020-02-10T14:09:39Z</time>
      </trkpt>
      <trkpt lat="47.18689" lon="6.14854">
        <ele>565</ele>
        <time>2020-02-10T14:09:52Z</time>
      </trkpt>
      <trkpt lat="47.1878" lon="6.14964">
        <ele>561</ele>
        <time>2020-02-10T14:10:13Z</time>
      </trkpt>
      <trkpt lat="47.18824" lon="6.15045">
        <ele>552</ele>
        <time>2020-02-10T14:10:25Z</time>
      </trkpt>
      <trkpt lat="47.18832" lon="6.15086">
        <ele>553</ele>
        <time>2020-02-10T14:10:30Z</time>
      </trkpt>
      <trkpt lat="47.1883" lon="6.15206">
        <ele>563</ele>
        <time>2020-02-10T14:10:45Z</time>
      </trkpt>
      <trkpt lat="47.18839" lon="6.15239">
        <ele>565</ele>
        <time>2020-02-10T14:10:49Z</time>
      </trkpt>
      <trkpt lat="47.18873" lon="6.15294">
        <ele>563</ele>
        <time>2020-02-10T14:10:58Z</time>
      </trkpt>
      <trkpt lat="47.19013" lon="6.15446">
        <ele>547</ele>
        <time>2020-02-10T14:11:29Z</time>
      </trkpt>
      <trkpt lat="47.19055" lon="6.15497">
        <ele>542</ele>
        <time>2020-02-10T14:11:39Z</time>
      </trkpt>
      <trkpt lat="47.19055" lon="6.15497">
        <ele>542</ele>
        <time>2020-02-10T14:11:39Z</time>
      </trkpt>
      <trkpt lat="47.19129" lon="6.15603">
        <ele>532</ele>
        <time>2020-02-10T14:11:57Z</time>
      </trkpt>
      <trkpt lat="47.1915" lon="6.15642">
        <ele>530</ele>
        <time>2020-02-10T14:12:03Z</time>
      </trkpt>
      <trkpt lat="47.19161" lon="6.15673">
        <ele>529</ele>
        <time>2020-02-10T14:12:08Z</time>
      </trkpt>
      <trkpt lat="47.19163" lon="6.15705">
        <ele>528</ele>
        <time>2020-02-10T14:12:11Z</time>
      </trkpt>
      <trkpt lat="47.19148" lon="6.15842">
        <ele>534</ele>
        <time>2020-02-10T14:12:28Z</time>
      </trkpt>
      <trkpt lat="47.1916" lon="6.15939">
        <ele>538</ele>
        <time>2020-02-10T14:12:40Z</time>
      </trkpt>
      <trkpt lat="47.19178" lon="6.1597">
        <ele>537</ele>
        <time>2020-02-10T14:12:45Z</time>
      </trkpt>
      <trkpt lat="47.19193" lon="6.15978">
        <ele>534</ele>
        <time>2020-02-10T14:12:48Z</time>
      </trkpt>
      <trkpt lat="47.19243" lon="6.15985">
        <ele>523</ele>
        <time>2020-02-10T14:12:57Z</time>
      </trkpt>
      <trkpt lat="47.19318" lon="6.16024">
        <ele>516</ele>
        <time>2020-02-10T14:13:11Z</time>
      </trkpt>
      <trkpt lat="47.19341" lon="6.16027">
        <ele>514</ele>
        <time>2020-02-10T14:13:15Z</time>
      </trkpt>
      <trkpt lat="47.1937" lon="6.1602">
        <ele>511</ele>
        <time>2020-02-10T14:13:20Z</time>
      </trkpt>
      <trkpt lat="47.19453" lon="6.15968">
        <ele>504</ele>
        <time>2020-02-10T14:13:36Z</time>
      </trkpt>
      <trkpt lat="47.19472" lon="6.15963">
        <ele>504</ele>
        <time>2020-02-10T14:13:40Z</time>
      </trkpt>
      <trkpt lat="47.19493" lon="6.15965">
        <ele>503</ele>
        <time>2020-02-10T14:13:44Z</time>
      </trkpt>
      <trkpt lat="47.19522" lon="6.15993">
        <ele>504</ele>
        <time>2020-02-10T14:13:50Z</time>
      </trkpt>
      <trkpt lat="47.19672" lon="6.1622">
        <ele>499</ele>
        <time>2020-02-10T14:14:28Z</time>
      </trkpt>
      <trkpt lat="47.19672" lon="6.1622">
        <ele>499</ele>
        <time>2020-02-10T14:14:28Z</time>
      </trkpt>
      <trkpt lat="47.19655" lon="6.1614">
        <ele>498</ele>
        <time>2020-02-10T14:14:38Z</time>
      </trkpt>
      <trkpt lat="47.19655" lon="6.1614">
        <ele>498</ele>
        <time>2020-02-10T14:14:38Z</time>
      </trkpt>
      <trkpt lat="47.19672" lon="6.1622">
        <ele>499</ele>
        <time>2020-02-10T14:14:48Z</time>
      </trkpt>
      <trkpt lat="47.19672" lon="6.1622">
        <ele>499</ele>
        <time>2020-02-10T14:14:48Z</time>
      </trkpt>
      <trkpt lat="47.19752" lon="6.16352">
        <ele>493</ele>
        <time>2020-02-10T14:15:10Z</time>
      </trkpt>
      <trkpt lat="47.19752" lon="6.16352">
        <ele>493</ele>
        <time>2020-02-10T14:15:10Z</time>
      </trkpt>
      <trkpt lat="47.19763" lon="6.16338">
        <ele>491</ele>
        <time>2020-02-10T14:15:12Z</time>
      </trkpt>
      <trkpt lat="47.19763" lon="6.16338">
        <ele>491</ele>
        <time>2020-02-10T14:15:12Z</time>
      </trkpt>
      <trkpt lat="47.19825" lon="6.16425">
        <ele>488</ele>
        <time>2020-02-10T14:15:27Z</time>
      </trkpt>
      <trkpt lat="47.19839" lon="6.16433">
        <ele>487</ele>
        <time>2020-02-10T14:15:30Z</time>
      </trkpt>
      <trkpt lat="47.1989" lon="6.16436">
        <ele>481</ele>
        <time>2020-02-10T14:15:39Z</time>
      </trkpt>
      <trkpt lat="47.19913" lon="6.16446">
        <ele>478</ele>
        <time>2020-02-10T14:15:44Z</time>
      </trkpt>
      <trkpt lat="47.19987" lon="6.16542">
        <ele>470</ele>
        <time>2020-02-10T14:16:01Z</time>
      </trkpt>
      <trkpt lat="47.20007" lon="6.16577">
        <ele>467</ele>
        <time>2020-02-10T14:16:07Z</time>
      </trkpt>
      <trkpt lat="47.20007" lon="6.16577">
        <ele>467</ele>
        <time>2020-02-10T14:16:07Z</time>
      </trkpt>
      <trkpt lat="47.2001" lon="6.16547">
        <ele>468</ele>
        <time>2020-02-10T14:16:10Z</time>
      </trkpt>
      <trkpt lat="47.2001" lon="6.16547">
        <ele>468</ele>
        <time>2020-02-10T14:16:10Z</time>
      </trkpt>
      <trkpt lat="47.20007" lon="6.16388">
        <ele>470</ele>
        <time>2020-02-10T14:16:29Z</time>
      </trkpt>
      <trkpt lat="47.19993" lon="6.16336">
        <ele>470</ele>
        <time>2020-02-10T14:16:36Z</time>
      </trkpt>
    </trkseg>
  </trk>
</gpx>